<?xml version="1.0" encoding="UTF-8" standalone="no" ?>
<gpx xmlns="http://www.topografix.com/GPX/1/1" xmlns:xsi="http://www.w3.org/2001/XMLSchema-instance" xsi:schemaLocation="http://www.topografix.com/GPX/1/1 http://www.topografix.com/GPX/1/1/gpx.xsd" version="1.1" creator="VisuGPX - https://www.visugpx.com">
  <metadata>
    <name>5798752-col de theoule-theoule-notre dame d'afrique</name>
  </metadata>
  <trk>
    <name><![CDATA[5798752-col de theoule-theoule-notre dame d'afrique]]></name>
    <trkseg>
      <trkpt lat="43.48456" lon="6.93148">
        <ele>15</ele>
        <time>2022-03-26T09:21:01Z</time>
      </trkpt>
      <trkpt lat="43.48456" lon="6.93145">
        <ele>15</ele>
        <time>2022-03-26T09:21:02Z</time>
      </trkpt>
      <trkpt lat="43.48456" lon="6.93143">
        <ele>15</ele>
        <time>2022-03-26T09:21:02Z</time>
      </trkpt>
      <trkpt lat="43.48455" lon="6.93141">
        <ele>15</ele>
        <time>2022-03-26T09:21:02Z</time>
      </trkpt>
      <trkpt lat="43.48455" lon="6.93137">
        <ele>15</ele>
        <time>2022-03-26T09:21:03Z</time>
      </trkpt>
      <trkpt lat="43.48454" lon="6.93136">
        <ele>15</ele>
        <time>2022-03-26T09:21:03Z</time>
      </trkpt>
      <trkpt lat="43.48455" lon="6.93134">
        <ele>15</ele>
        <time>2022-03-26T09:21:04Z</time>
      </trkpt>
      <trkpt lat="43.48455" lon="6.93133">
        <ele>15</ele>
        <time>2022-03-26T09:21:04Z</time>
      </trkpt>
      <trkpt lat="43.48455" lon="6.93131">
        <ele>15</ele>
        <time>2022-03-26T09:21:04Z</time>
      </trkpt>
      <trkpt lat="43.48456" lon="6.93129">
        <ele>15</ele>
        <time>2022-03-26T09:21:05Z</time>
      </trkpt>
      <trkpt lat="43.48457" lon="6.93127">
        <ele>15</ele>
        <time>2022-03-26T09:21:05Z</time>
      </trkpt>
      <trkpt lat="43.48458" lon="6.93126">
        <ele>16</ele>
        <time>2022-03-26T09:21:05Z</time>
      </trkpt>
      <trkpt lat="43.4846" lon="6.93125">
        <ele>16</ele>
        <time>2022-03-26T09:21:06Z</time>
      </trkpt>
      <trkpt lat="43.48462" lon="6.93122">
        <ele>17</ele>
        <time>2022-03-26T09:21:06Z</time>
      </trkpt>
      <trkpt lat="43.48468" lon="6.93117">
        <ele>18</ele>
        <time>2022-03-26T09:21:08Z</time>
      </trkpt>
      <trkpt lat="43.48474" lon="6.93112">
        <ele>19</ele>
        <time>2022-03-26T09:21:10Z</time>
      </trkpt>
      <trkpt lat="43.48481" lon="6.93106">
        <ele>21</ele>
        <time>2022-03-26T09:21:12Z</time>
      </trkpt>
      <trkpt lat="43.48487" lon="6.93102">
        <ele>22</ele>
        <time>2022-03-26T09:21:13Z</time>
      </trkpt>
      <trkpt lat="43.48489" lon="6.93101">
        <ele>22</ele>
        <time>2022-03-26T09:21:14Z</time>
      </trkpt>
      <trkpt lat="43.48493" lon="6.931">
        <ele>23</ele>
        <time>2022-03-26T09:21:15Z</time>
      </trkpt>
      <trkpt lat="43.48496" lon="6.93099">
        <ele>24</ele>
        <time>2022-03-26T09:21:15Z</time>
      </trkpt>
      <trkpt lat="43.48498" lon="6.931">
        <ele>24</ele>
        <time>2022-03-26T09:21:16Z</time>
      </trkpt>
      <trkpt lat="43.485" lon="6.931">
        <ele>24</ele>
        <time>2022-03-26T09:21:16Z</time>
      </trkpt>
      <trkpt lat="43.48503" lon="6.93102">
        <ele>25</ele>
        <time>2022-03-26T09:21:17Z</time>
      </trkpt>
      <trkpt lat="43.48505" lon="6.93106">
        <ele>25</ele>
        <time>2022-03-26T09:21:18Z</time>
      </trkpt>
      <trkpt lat="43.48509" lon="6.93111">
        <ele>26</ele>
        <time>2022-03-26T09:21:19Z</time>
      </trkpt>
      <trkpt lat="43.48513" lon="6.93121">
        <ele>26</ele>
        <time>2022-03-26T09:21:21Z</time>
      </trkpt>
      <trkpt lat="43.48516" lon="6.9313">
        <ele>27</ele>
        <time>2022-03-26T09:21:23Z</time>
      </trkpt>
      <trkpt lat="43.48518" lon="6.93139">
        <ele>27</ele>
        <time>2022-03-26T09:21:24Z</time>
      </trkpt>
      <trkpt lat="43.48521" lon="6.93155">
        <ele>27</ele>
        <time>2022-03-26T09:21:27Z</time>
      </trkpt>
      <trkpt lat="43.48524" lon="6.93167">
        <ele>28</ele>
        <time>2022-03-26T09:21:29Z</time>
      </trkpt>
      <trkpt lat="43.48526" lon="6.93175">
        <ele>27</ele>
        <time>2022-03-26T09:21:31Z</time>
      </trkpt>
      <trkpt lat="43.4853" lon="6.9319">
        <ele>27</ele>
        <time>2022-03-26T09:21:33Z</time>
      </trkpt>
      <trkpt lat="43.48534" lon="6.93207">
        <ele>26</ele>
        <time>2022-03-26T09:21:37Z</time>
      </trkpt>
      <trkpt lat="43.48538" lon="6.93219">
        <ele>25</ele>
        <time>2022-03-26T09:21:39Z</time>
      </trkpt>
      <trkpt lat="43.48541" lon="6.9323">
        <ele>25</ele>
        <time>2022-03-26T09:21:41Z</time>
      </trkpt>
      <trkpt lat="43.48545" lon="6.9324">
        <ele>24</ele>
        <time>2022-03-26T09:21:43Z</time>
      </trkpt>
      <trkpt lat="43.48548" lon="6.93244">
        <ele>24</ele>
        <time>2022-03-26T09:21:44Z</time>
      </trkpt>
      <trkpt lat="43.48552" lon="6.93248">
        <ele>24</ele>
        <time>2022-03-26T09:21:45Z</time>
      </trkpt>
      <trkpt lat="43.48554" lon="6.9325">
        <ele>24</ele>
        <time>2022-03-26T09:21:45Z</time>
      </trkpt>
      <trkpt lat="43.48558" lon="6.93252">
        <ele>24</ele>
        <time>2022-03-26T09:21:46Z</time>
      </trkpt>
      <trkpt lat="43.48562" lon="6.93253">
        <ele>25</ele>
        <time>2022-03-26T09:21:47Z</time>
      </trkpt>
      <trkpt lat="43.48565" lon="6.93253">
        <ele>25</ele>
        <time>2022-03-26T09:21:48Z</time>
      </trkpt>
      <trkpt lat="43.48568" lon="6.93252">
        <ele>26</ele>
        <time>2022-03-26T09:21:49Z</time>
      </trkpt>
      <trkpt lat="43.48572" lon="6.93251">
        <ele>26</ele>
        <time>2022-03-26T09:21:50Z</time>
      </trkpt>
      <trkpt lat="43.48576" lon="6.93248">
        <ele>27</ele>
        <time>2022-03-26T09:21:51Z</time>
      </trkpt>
      <trkpt lat="43.48581" lon="6.93245">
        <ele>29</ele>
        <time>2022-03-26T09:21:52Z</time>
      </trkpt>
      <trkpt lat="43.48587" lon="6.93241">
        <ele>29</ele>
        <time>2022-03-26T09:21:54Z</time>
      </trkpt>
      <trkpt lat="43.48595" lon="6.93236">
        <ele>30</ele>
        <time>2022-03-26T09:21:56Z</time>
      </trkpt>
      <trkpt lat="43.486" lon="6.93234">
        <ele>30</ele>
        <time>2022-03-26T09:21:57Z</time>
      </trkpt>
      <trkpt lat="43.48606" lon="6.93231">
        <ele>31</ele>
        <time>2022-03-26T09:21:58Z</time>
      </trkpt>
      <trkpt lat="43.48614" lon="6.9323">
        <ele>31</ele>
        <time>2022-03-26T09:22:00Z</time>
      </trkpt>
      <trkpt lat="43.48625" lon="6.93228">
        <ele>31</ele>
        <time>2022-03-26T09:22:03Z</time>
      </trkpt>
      <trkpt lat="43.48632" lon="6.93226">
        <ele>31</ele>
        <time>2022-03-26T09:22:04Z</time>
      </trkpt>
      <trkpt lat="43.48638" lon="6.93222">
        <ele>32</ele>
        <time>2022-03-26T09:22:06Z</time>
      </trkpt>
      <trkpt lat="43.48643" lon="6.93218">
        <ele>32</ele>
        <time>2022-03-26T09:22:07Z</time>
      </trkpt>
      <trkpt lat="43.48649" lon="6.93216">
        <ele>32</ele>
        <time>2022-03-26T09:22:09Z</time>
      </trkpt>
      <trkpt lat="43.48652" lon="6.93214">
        <ele>33</ele>
        <time>2022-03-26T09:22:10Z</time>
      </trkpt>
      <trkpt lat="43.48658" lon="6.93214">
        <ele>32</ele>
        <time>2022-03-26T09:22:11Z</time>
      </trkpt>
      <trkpt lat="43.48658" lon="6.93214">
        <ele>32</ele>
        <time>2022-03-26T09:22:11Z</time>
      </trkpt>
      <trkpt lat="43.48672" lon="6.93209">
        <ele>33</ele>
        <time>2022-03-26T09:22:14Z</time>
      </trkpt>
      <trkpt lat="43.48678" lon="6.93207">
        <ele>33</ele>
        <time>2022-03-26T09:22:16Z</time>
      </trkpt>
      <trkpt lat="43.4868" lon="6.93205">
        <ele>34</ele>
        <time>2022-03-26T09:22:16Z</time>
      </trkpt>
      <trkpt lat="43.48682" lon="6.932">
        <ele>34</ele>
        <time>2022-03-26T09:22:17Z</time>
      </trkpt>
      <trkpt lat="43.48683" lon="6.93196">
        <ele>35</ele>
        <time>2022-03-26T09:22:18Z</time>
      </trkpt>
      <trkpt lat="43.48683" lon="6.93188">
        <ele>36</ele>
        <time>2022-03-26T09:22:19Z</time>
      </trkpt>
      <trkpt lat="43.48684" lon="6.93176">
        <ele>37</ele>
        <time>2022-03-26T09:22:22Z</time>
      </trkpt>
      <trkpt lat="43.48686" lon="6.93165">
        <ele>39</ele>
        <time>2022-03-26T09:22:23Z</time>
      </trkpt>
      <trkpt lat="43.48689" lon="6.93153">
        <ele>40</ele>
        <time>2022-03-26T09:22:26Z</time>
      </trkpt>
      <trkpt lat="43.48688" lon="6.9315">
        <ele>40</ele>
        <time>2022-03-26T09:22:26Z</time>
      </trkpt>
      <trkpt lat="43.48687" lon="6.93141">
        <ele>41</ele>
        <time>2022-03-26T09:22:28Z</time>
      </trkpt>
      <trkpt lat="43.48688" lon="6.9312">
        <ele>44</ele>
        <time>2022-03-26T09:22:31Z</time>
      </trkpt>
      <trkpt lat="43.48688" lon="6.93117">
        <ele>44</ele>
        <time>2022-03-26T09:22:32Z</time>
      </trkpt>
      <trkpt lat="43.48688" lon="6.93115">
        <ele>45</ele>
        <time>2022-03-26T09:22:32Z</time>
      </trkpt>
      <trkpt lat="43.48689" lon="6.93114">
        <ele>45</ele>
        <time>2022-03-26T09:22:32Z</time>
      </trkpt>
      <trkpt lat="43.4869" lon="6.93113">
        <ele>45</ele>
        <time>2022-03-26T09:22:33Z</time>
      </trkpt>
      <trkpt lat="43.48697" lon="6.93106">
        <ele>45</ele>
        <time>2022-03-26T09:22:35Z</time>
      </trkpt>
      <trkpt lat="43.48698" lon="6.93105">
        <ele>46</ele>
        <time>2022-03-26T09:22:35Z</time>
      </trkpt>
      <trkpt lat="43.48699" lon="6.93103">
        <ele>46</ele>
        <time>2022-03-26T09:22:35Z</time>
      </trkpt>
      <trkpt lat="43.48701" lon="6.93101">
        <ele>46</ele>
        <time>2022-03-26T09:22:36Z</time>
      </trkpt>
      <trkpt lat="43.48701" lon="6.93099">
        <ele>46</ele>
        <time>2022-03-26T09:22:36Z</time>
      </trkpt>
      <trkpt lat="43.48702" lon="6.93097">
        <ele>46</ele>
        <time>2022-03-26T09:22:37Z</time>
      </trkpt>
      <trkpt lat="43.48704" lon="6.93093">
        <ele>47</ele>
        <time>2022-03-26T09:22:38Z</time>
      </trkpt>
      <trkpt lat="43.48706" lon="6.93084">
        <ele>48</ele>
        <time>2022-03-26T09:22:39Z</time>
      </trkpt>
      <trkpt lat="43.48708" lon="6.93077">
        <ele>49</ele>
        <time>2022-03-26T09:22:40Z</time>
      </trkpt>
      <trkpt lat="43.48711" lon="6.93071">
        <ele>50</ele>
        <time>2022-03-26T09:22:42Z</time>
      </trkpt>
      <trkpt lat="43.48715" lon="6.93067">
        <ele>50</ele>
        <time>2022-03-26T09:22:43Z</time>
      </trkpt>
      <trkpt lat="43.48725" lon="6.93059">
        <ele>52</ele>
        <time>2022-03-26T09:22:45Z</time>
      </trkpt>
      <trkpt lat="43.48727" lon="6.93059">
        <ele>52</ele>
        <time>2022-03-26T09:22:46Z</time>
      </trkpt>
      <trkpt lat="43.48729" lon="6.93059">
        <ele>52</ele>
        <time>2022-03-26T09:22:46Z</time>
      </trkpt>
      <trkpt lat="43.4873" lon="6.93059">
        <ele>52</ele>
        <time>2022-03-26T09:22:47Z</time>
      </trkpt>
      <trkpt lat="43.4873" lon="6.9306">
        <ele>52</ele>
        <time>2022-03-26T09:22:47Z</time>
      </trkpt>
      <trkpt lat="43.48731" lon="6.93062">
        <ele>51</ele>
        <time>2022-03-26T09:22:47Z</time>
      </trkpt>
      <trkpt lat="43.48731" lon="6.93065">
        <ele>51</ele>
        <time>2022-03-26T09:22:48Z</time>
      </trkpt>
      <trkpt lat="43.48738" lon="6.93094">
        <ele>46</ele>
        <time>2022-03-26T09:22:53Z</time>
      </trkpt>
      <trkpt lat="43.48746" lon="6.93115">
        <ele>43</ele>
        <time>2022-03-26T09:22:57Z</time>
      </trkpt>
      <trkpt lat="43.4875" lon="6.93117">
        <ele>43</ele>
        <time>2022-03-26T09:22:58Z</time>
      </trkpt>
      <trkpt lat="43.48758" lon="6.93117">
        <ele>42</ele>
        <time>2022-03-26T09:23:00Z</time>
      </trkpt>
      <trkpt lat="43.48767" lon="6.93105">
        <ele>44</ele>
        <time>2022-03-26T09:23:03Z</time>
      </trkpt>
      <trkpt lat="43.48773" lon="6.93095">
        <ele>45</ele>
        <time>2022-03-26T09:23:05Z</time>
      </trkpt>
      <trkpt lat="43.48783" lon="6.93079">
        <ele>47</ele>
        <time>2022-03-26T09:23:09Z</time>
      </trkpt>
      <trkpt lat="43.488" lon="6.93066">
        <ele>50</ele>
        <time>2022-03-26T09:23:13Z</time>
      </trkpt>
      <trkpt lat="43.48821" lon="6.93051">
        <ele>54</ele>
        <time>2022-03-26T09:23:19Z</time>
      </trkpt>
      <trkpt lat="43.48824" lon="6.93048">
        <ele>55</ele>
        <time>2022-03-26T09:23:19Z</time>
      </trkpt>
      <trkpt lat="43.4883" lon="6.9304">
        <ele>58</ele>
        <time>2022-03-26T09:23:21Z</time>
      </trkpt>
      <trkpt lat="43.48833" lon="6.93037">
        <ele>59</ele>
        <time>2022-03-26T09:23:22Z</time>
      </trkpt>
      <trkpt lat="43.48836" lon="6.93036">
        <ele>59</ele>
        <time>2022-03-26T09:23:23Z</time>
      </trkpt>
      <trkpt lat="43.48839" lon="6.93036">
        <ele>59</ele>
        <time>2022-03-26T09:23:24Z</time>
      </trkpt>
      <trkpt lat="43.48857" lon="6.93041">
        <ele>56</ele>
        <time>2022-03-26T09:23:28Z</time>
      </trkpt>
      <trkpt lat="43.48862" lon="6.93041">
        <ele>56</ele>
        <time>2022-03-26T09:23:29Z</time>
      </trkpt>
      <trkpt lat="43.48867" lon="6.9304">
        <ele>56</ele>
        <time>2022-03-26T09:23:30Z</time>
      </trkpt>
      <trkpt lat="43.48875" lon="6.93036">
        <ele>56</ele>
        <time>2022-03-26T09:23:32Z</time>
      </trkpt>
      <trkpt lat="43.48888" lon="6.93026">
        <ele>58</ele>
        <time>2022-03-26T09:23:36Z</time>
      </trkpt>
      <trkpt lat="43.48904" lon="6.93009">
        <ele>60</ele>
        <time>2022-03-26T09:23:40Z</time>
      </trkpt>
      <trkpt lat="43.48917" lon="6.9299">
        <ele>64</ele>
        <time>2022-03-26T09:23:45Z</time>
      </trkpt>
      <trkpt lat="43.4892" lon="6.92985">
        <ele>65</ele>
        <time>2022-03-26T09:23:46Z</time>
      </trkpt>
      <trkpt lat="43.48921" lon="6.92979">
        <ele>67</ele>
        <time>2022-03-26T09:23:47Z</time>
      </trkpt>
      <trkpt lat="43.48922" lon="6.9296">
        <ele>73</ele>
        <time>2022-03-26T09:23:50Z</time>
      </trkpt>
      <trkpt lat="43.48923" lon="6.92957">
        <ele>74</ele>
        <time>2022-03-26T09:23:51Z</time>
      </trkpt>
      <trkpt lat="43.48924" lon="6.92953">
        <ele>75</ele>
        <time>2022-03-26T09:23:52Z</time>
      </trkpt>
      <trkpt lat="43.48933" lon="6.92946">
        <ele>76</ele>
        <time>2022-03-26T09:23:54Z</time>
      </trkpt>
      <trkpt lat="43.4894" lon="6.92938">
        <ele>77</ele>
        <time>2022-03-26T09:23:56Z</time>
      </trkpt>
      <trkpt lat="43.48944" lon="6.92935">
        <ele>77</ele>
        <time>2022-03-26T09:23:57Z</time>
      </trkpt>
      <trkpt lat="43.48948" lon="6.92934">
        <ele>76</ele>
        <time>2022-03-26T09:23:58Z</time>
      </trkpt>
      <trkpt lat="43.48958" lon="6.92934">
        <ele>74</ele>
        <time>2022-03-26T09:24:00Z</time>
      </trkpt>
      <trkpt lat="43.48969" lon="6.92931">
        <ele>72</ele>
        <time>2022-03-26T09:24:03Z</time>
      </trkpt>
      <trkpt lat="43.48975" lon="6.92928">
        <ele>71</ele>
        <time>2022-03-26T09:24:05Z</time>
      </trkpt>
      <trkpt lat="43.48987" lon="6.92915">
        <ele>72</ele>
        <time>2022-03-26T09:24:08Z</time>
      </trkpt>
      <trkpt lat="43.48992" lon="6.92907">
        <ele>73</ele>
        <time>2022-03-26T09:24:10Z</time>
      </trkpt>
      <trkpt lat="43.48999" lon="6.92891">
        <ele>75</ele>
        <time>2022-03-26T09:24:13Z</time>
      </trkpt>
      <trkpt lat="43.49002" lon="6.92882">
        <ele>77</ele>
        <time>2022-03-26T09:24:15Z</time>
      </trkpt>
      <trkpt lat="43.49009" lon="6.92855">
        <ele>84</ele>
        <time>2022-03-26T09:24:20Z</time>
      </trkpt>
      <trkpt lat="43.49011" lon="6.9285">
        <ele>85</ele>
        <time>2022-03-26T09:24:21Z</time>
      </trkpt>
      <trkpt lat="43.49012" lon="6.92848">
        <ele>85</ele>
        <time>2022-03-26T09:24:21Z</time>
      </trkpt>
      <trkpt lat="43.49017" lon="6.92846">
        <ele>85</ele>
        <time>2022-03-26T09:24:22Z</time>
      </trkpt>
      <trkpt lat="43.49023" lon="6.92847">
        <ele>84</ele>
        <time>2022-03-26T09:24:24Z</time>
      </trkpt>
      <trkpt lat="43.4903" lon="6.92851">
        <ele>82</ele>
        <time>2022-03-26T09:24:25Z</time>
      </trkpt>
      <trkpt lat="43.49039" lon="6.9286">
        <ele>79</ele>
        <time>2022-03-26T09:24:28Z</time>
      </trkpt>
      <trkpt lat="43.49043" lon="6.92862">
        <ele>78</ele>
        <time>2022-03-26T09:24:29Z</time>
      </trkpt>
      <trkpt lat="43.49049" lon="6.92862">
        <ele>77</ele>
        <time>2022-03-26T09:24:30Z</time>
      </trkpt>
      <trkpt lat="43.49054" lon="6.92861">
        <ele>77</ele>
        <time>2022-03-26T09:24:32Z</time>
      </trkpt>
      <trkpt lat="43.49058" lon="6.9286">
        <ele>76</ele>
        <time>2022-03-26T09:24:33Z</time>
      </trkpt>
      <trkpt lat="43.49062" lon="6.92856">
        <ele>77</ele>
        <time>2022-03-26T09:24:34Z</time>
      </trkpt>
      <trkpt lat="43.49065" lon="6.92851">
        <ele>78</ele>
        <time>2022-03-26T09:24:35Z</time>
      </trkpt>
      <trkpt lat="43.49071" lon="6.92838">
        <ele>80</ele>
        <time>2022-03-26T09:24:37Z</time>
      </trkpt>
      <trkpt lat="43.49079" lon="6.92814">
        <ele>86</ele>
        <time>2022-03-26T09:24:42Z</time>
      </trkpt>
      <trkpt lat="43.49081" lon="6.9281">
        <ele>87</ele>
        <time>2022-03-26T09:24:43Z</time>
      </trkpt>
      <trkpt lat="43.49084" lon="6.92808">
        <ele>88</ele>
        <time>2022-03-26T09:24:43Z</time>
      </trkpt>
      <trkpt lat="43.49088" lon="6.92807">
        <ele>88</ele>
        <time>2022-03-26T09:24:44Z</time>
      </trkpt>
      <trkpt lat="43.49103" lon="6.92809">
        <ele>87</ele>
        <time>2022-03-26T09:24:48Z</time>
      </trkpt>
      <trkpt lat="43.49108" lon="6.9281">
        <ele>87</ele>
        <time>2022-03-26T09:24:49Z</time>
      </trkpt>
      <trkpt lat="43.49113" lon="6.92812">
        <ele>87</ele>
        <time>2022-03-26T09:24:50Z</time>
      </trkpt>
      <trkpt lat="43.49114" lon="6.92813">
        <ele>86</ele>
        <time>2022-03-26T09:24:51Z</time>
      </trkpt>
      <trkpt lat="43.49122" lon="6.92825">
        <ele>83</ele>
        <time>2022-03-26T09:24:53Z</time>
      </trkpt>
      <trkpt lat="43.49142" lon="6.92846">
        <ele>78</ele>
        <time>2022-03-26T09:24:59Z</time>
      </trkpt>
      <trkpt lat="43.49146" lon="6.9285">
        <ele>77</ele>
        <time>2022-03-26T09:25:00Z</time>
      </trkpt>
      <trkpt lat="43.4915" lon="6.92851">
        <ele>77</ele>
        <time>2022-03-26T09:25:01Z</time>
      </trkpt>
      <trkpt lat="43.49153" lon="6.92851">
        <ele>77</ele>
        <time>2022-03-26T09:25:02Z</time>
      </trkpt>
      <trkpt lat="43.49157" lon="6.92847">
        <ele>78</ele>
        <time>2022-03-26T09:25:03Z</time>
      </trkpt>
      <trkpt lat="43.49166" lon="6.92834">
        <ele>81</ele>
        <time>2022-03-26T09:25:06Z</time>
      </trkpt>
      <trkpt lat="43.4917" lon="6.92826">
        <ele>83</ele>
        <time>2022-03-26T09:25:08Z</time>
      </trkpt>
      <trkpt lat="43.49178" lon="6.92806">
        <ele>88</ele>
        <time>2022-03-26T09:25:12Z</time>
      </trkpt>
      <trkpt lat="43.4918" lon="6.92803">
        <ele>89</ele>
        <time>2022-03-26T09:25:12Z</time>
      </trkpt>
      <trkpt lat="43.49185" lon="6.928">
        <ele>89</ele>
        <time>2022-03-26T09:25:14Z</time>
      </trkpt>
      <trkpt lat="43.49195" lon="6.928">
        <ele>89</ele>
        <time>2022-03-26T09:25:16Z</time>
      </trkpt>
      <trkpt lat="43.49202" lon="6.92797">
        <ele>89</ele>
        <time>2022-03-26T09:25:18Z</time>
      </trkpt>
      <trkpt lat="43.49214" lon="6.9279">
        <ele>90</ele>
        <time>2022-03-26T09:25:21Z</time>
      </trkpt>
      <trkpt lat="43.49219" lon="6.92784">
        <ele>91</ele>
        <time>2022-03-26T09:25:22Z</time>
      </trkpt>
      <trkpt lat="43.49223" lon="6.92776">
        <ele>93</ele>
        <time>2022-03-26T09:25:24Z</time>
      </trkpt>
      <trkpt lat="43.4923" lon="6.92769">
        <ele>94</ele>
        <time>2022-03-26T09:25:26Z</time>
      </trkpt>
      <trkpt lat="43.49234" lon="6.92765">
        <ele>95</ele>
        <time>2022-03-26T09:25:27Z</time>
      </trkpt>
      <trkpt lat="43.49238" lon="6.92762">
        <ele>95</ele>
        <time>2022-03-26T09:25:28Z</time>
      </trkpt>
      <trkpt lat="43.49242" lon="6.92761">
        <ele>95</ele>
        <time>2022-03-26T09:25:29Z</time>
      </trkpt>
      <trkpt lat="43.49247" lon="6.92761">
        <ele>95</ele>
        <time>2022-03-26T09:25:30Z</time>
      </trkpt>
      <trkpt lat="43.49257" lon="6.92763">
        <ele>94</ele>
        <time>2022-03-26T09:25:33Z</time>
      </trkpt>
      <trkpt lat="43.49261" lon="6.92762">
        <ele>94</ele>
        <time>2022-03-26T09:25:34Z</time>
      </trkpt>
      <trkpt lat="43.49266" lon="6.92757">
        <ele>94</ele>
        <time>2022-03-26T09:25:35Z</time>
      </trkpt>
      <trkpt lat="43.49271" lon="6.92741">
        <ele>97</ele>
        <time>2022-03-26T09:25:38Z</time>
      </trkpt>
      <trkpt lat="43.49275" lon="6.92731">
        <ele>99</ele>
        <time>2022-03-26T09:25:40Z</time>
      </trkpt>
      <trkpt lat="43.49288" lon="6.9271">
        <ele>103</ele>
        <time>2022-03-26T09:25:45Z</time>
      </trkpt>
      <trkpt lat="43.49296" lon="6.92702">
        <ele>104</ele>
        <time>2022-03-26T09:25:47Z</time>
      </trkpt>
      <trkpt lat="43.49308" lon="6.92687">
        <ele>106</ele>
        <time>2022-03-26T09:25:51Z</time>
      </trkpt>
      <trkpt lat="43.49311" lon="6.92684">
        <ele>107</ele>
        <time>2022-03-26T09:25:52Z</time>
      </trkpt>
      <trkpt lat="43.49312" lon="6.92684">
        <ele>107</ele>
        <time>2022-03-26T09:25:52Z</time>
      </trkpt>
      <trkpt lat="43.49325" lon="6.92686">
        <ele>105</ele>
        <time>2022-03-26T09:25:55Z</time>
      </trkpt>
      <trkpt lat="43.49334" lon="6.92684">
        <ele>104</ele>
        <time>2022-03-26T09:25:57Z</time>
      </trkpt>
      <trkpt lat="43.49336" lon="6.92683">
        <ele>105</ele>
        <time>2022-03-26T09:25:58Z</time>
      </trkpt>
      <trkpt lat="43.49343" lon="6.92678">
        <ele>106</ele>
        <time>2022-03-26T09:25:59Z</time>
      </trkpt>
      <trkpt lat="43.49347" lon="6.92671">
        <ele>107</ele>
        <time>2022-03-26T09:26:01Z</time>
      </trkpt>
      <trkpt lat="43.49351" lon="6.92663">
        <ele>109</ele>
        <time>2022-03-26T09:26:03Z</time>
      </trkpt>
      <trkpt lat="43.49361" lon="6.92651">
        <ele>112</ele>
        <time>2022-03-26T09:26:06Z</time>
      </trkpt>
      <trkpt lat="43.49367" lon="6.92644">
        <ele>114</ele>
        <time>2022-03-26T09:26:07Z</time>
      </trkpt>
      <trkpt lat="43.49371" lon="6.92634">
        <ele>117</ele>
        <time>2022-03-26T09:26:09Z</time>
      </trkpt>
      <trkpt lat="43.49374" lon="6.92629">
        <ele>118</ele>
        <time>2022-03-26T09:26:11Z</time>
      </trkpt>
      <trkpt lat="43.49382" lon="6.92615">
        <ele>120</ele>
        <time>2022-03-26T09:26:14Z</time>
      </trkpt>
      <trkpt lat="43.49392" lon="6.92573">
        <ele>129</ele>
        <time>2022-03-26T09:26:21Z</time>
      </trkpt>
      <trkpt lat="43.49394" lon="6.9257">
        <ele>130</ele>
        <time>2022-03-26T09:26:22Z</time>
      </trkpt>
      <trkpt lat="43.49398" lon="6.92568">
        <ele>130</ele>
        <time>2022-03-26T09:26:23Z</time>
      </trkpt>
      <trkpt lat="43.49401" lon="6.92569">
        <ele>129</ele>
        <time>2022-03-26T09:26:23Z</time>
      </trkpt>
      <trkpt lat="43.49404" lon="6.92573">
        <ele>127</ele>
        <time>2022-03-26T09:26:24Z</time>
      </trkpt>
      <trkpt lat="43.4941" lon="6.92587">
        <ele>123</ele>
        <time>2022-03-26T09:26:27Z</time>
      </trkpt>
      <trkpt lat="43.49418" lon="6.92598">
        <ele>121</ele>
        <time>2022-03-26T09:26:30Z</time>
      </trkpt>
      <trkpt lat="43.49422" lon="6.92602">
        <ele>121</ele>
        <time>2022-03-26T09:26:31Z</time>
      </trkpt>
      <trkpt lat="43.49426" lon="6.92603">
        <ele>122</ele>
        <time>2022-03-26T09:26:32Z</time>
      </trkpt>
      <trkpt lat="43.49433" lon="6.92606">
        <ele>123</ele>
        <time>2022-03-26T09:26:34Z</time>
      </trkpt>
      <trkpt lat="43.49438" lon="6.92611">
        <ele>123</ele>
        <time>2022-03-26T09:26:35Z</time>
      </trkpt>
      <trkpt lat="43.4944" lon="6.92616">
        <ele>123</ele>
        <time>2022-03-26T09:26:36Z</time>
      </trkpt>
      <trkpt lat="43.49442" lon="6.92627">
        <ele>122</ele>
        <time>2022-03-26T09:26:38Z</time>
      </trkpt>
      <trkpt lat="43.49448" lon="6.92644">
        <ele>120</ele>
        <time>2022-03-26T09:26:41Z</time>
      </trkpt>
      <trkpt lat="43.4945" lon="6.92653">
        <ele>119</ele>
        <time>2022-03-26T09:26:43Z</time>
      </trkpt>
      <trkpt lat="43.4945" lon="6.92656">
        <ele>118</ele>
        <time>2022-03-26T09:26:43Z</time>
      </trkpt>
      <trkpt lat="43.49448" lon="6.92677">
        <ele>116</ele>
        <time>2022-03-26T09:26:47Z</time>
      </trkpt>
      <trkpt lat="43.49448" lon="6.92688">
        <ele>115</ele>
        <time>2022-03-26T09:26:49Z</time>
      </trkpt>
      <trkpt lat="43.4945" lon="6.92695">
        <ele>115</ele>
        <time>2022-03-26T09:26:50Z</time>
      </trkpt>
      <trkpt lat="43.49456" lon="6.92716">
        <ele>115</ele>
        <time>2022-03-26T09:26:54Z</time>
      </trkpt>
      <trkpt lat="43.49462" lon="6.92729">
        <ele>115</ele>
        <time>2022-03-26T09:26:56Z</time>
      </trkpt>
      <trkpt lat="43.49474" lon="6.92752">
        <ele>116</ele>
        <time>2022-03-26T09:27:01Z</time>
      </trkpt>
      <trkpt lat="43.49478" lon="6.92758">
        <ele>117</ele>
        <time>2022-03-26T09:27:03Z</time>
      </trkpt>
      <trkpt lat="43.4949" lon="6.92769">
        <ele>119</ele>
        <time>2022-03-26T09:27:06Z</time>
      </trkpt>
      <trkpt lat="43.49491" lon="6.92776">
        <ele>120</ele>
        <time>2022-03-26T09:27:07Z</time>
      </trkpt>
      <trkpt lat="43.49498" lon="6.92791">
        <ele>121</ele>
        <time>2022-03-26T09:27:10Z</time>
      </trkpt>
      <trkpt lat="43.49502" lon="6.92808">
        <ele>122</ele>
        <time>2022-03-26T09:27:13Z</time>
      </trkpt>
      <trkpt lat="43.49503" lon="6.92819">
        <ele>122</ele>
        <time>2022-03-26T09:27:15Z</time>
      </trkpt>
      <trkpt lat="43.49505" lon="6.92832">
        <ele>122</ele>
        <time>2022-03-26T09:27:17Z</time>
      </trkpt>
      <trkpt lat="43.49508" lon="6.92837">
        <ele>122</ele>
        <time>2022-03-26T09:27:18Z</time>
      </trkpt>
      <trkpt lat="43.49528" lon="6.92856">
        <ele>119</ele>
        <time>2022-03-26T09:27:24Z</time>
      </trkpt>
      <trkpt lat="43.49544" lon="6.92882">
        <ele>117</ele>
        <time>2022-03-26T09:27:30Z</time>
      </trkpt>
      <trkpt lat="43.4956" lon="6.92902">
        <ele>114</ele>
        <time>2022-03-26T09:27:35Z</time>
      </trkpt>
      <trkpt lat="43.49566" lon="6.92912">
        <ele>113</ele>
        <time>2022-03-26T09:27:37Z</time>
      </trkpt>
      <trkpt lat="43.49573" lon="6.92929">
        <ele>112</ele>
        <time>2022-03-26T09:27:40Z</time>
      </trkpt>
      <trkpt lat="43.49578" lon="6.92943">
        <ele>111</ele>
        <time>2022-03-26T09:27:43Z</time>
      </trkpt>
      <trkpt lat="43.49596" lon="6.92979">
        <ele>109</ele>
        <time>2022-03-26T09:27:50Z</time>
      </trkpt>
      <trkpt lat="43.49597" lon="6.92986">
        <ele>109</ele>
        <time>2022-03-26T09:27:52Z</time>
      </trkpt>
      <trkpt lat="43.4959" lon="6.92999">
        <ele>111</ele>
        <time>2022-03-26T09:27:54Z</time>
      </trkpt>
      <trkpt lat="43.49589" lon="6.93003">
        <ele>112</ele>
        <time>2022-03-26T09:27:55Z</time>
      </trkpt>
      <trkpt lat="43.4959" lon="6.93015">
        <ele>112</ele>
        <time>2022-03-26T09:27:57Z</time>
      </trkpt>
      <trkpt lat="43.49594" lon="6.93025">
        <ele>112</ele>
        <time>2022-03-26T09:27:59Z</time>
      </trkpt>
      <trkpt lat="43.49597" lon="6.93029">
        <ele>111</ele>
        <time>2022-03-26T09:28:00Z</time>
      </trkpt>
      <trkpt lat="43.49611" lon="6.93035">
        <ele>107</ele>
        <time>2022-03-26T09:28:04Z</time>
      </trkpt>
      <trkpt lat="43.49617" lon="6.93038">
        <ele>106</ele>
        <time>2022-03-26T09:28:05Z</time>
      </trkpt>
      <trkpt lat="43.49626" lon="6.93045">
        <ele>104</ele>
        <time>2022-03-26T09:28:07Z</time>
      </trkpt>
      <trkpt lat="43.49631" lon="6.9305">
        <ele>102</ele>
        <time>2022-03-26T09:28:09Z</time>
      </trkpt>
      <trkpt lat="43.49633" lon="6.93054">
        <ele>102</ele>
        <time>2022-03-26T09:28:10Z</time>
      </trkpt>
      <trkpt lat="43.49634" lon="6.93067">
        <ele>101</ele>
        <time>2022-03-26T09:28:12Z</time>
      </trkpt>
      <trkpt lat="43.49632" lon="6.93089">
        <ele>101</ele>
        <time>2022-03-26T09:28:16Z</time>
      </trkpt>
      <trkpt lat="43.49626" lon="6.93126">
        <ele>99</ele>
        <time>2022-03-26T09:28:22Z</time>
      </trkpt>
      <trkpt lat="43.49622" lon="6.93139">
        <ele>98</ele>
        <time>2022-03-26T09:28:24Z</time>
      </trkpt>
      <trkpt lat="43.49608" lon="6.9316">
        <ele>100</ele>
        <time>2022-03-26T09:28:29Z</time>
      </trkpt>
      <trkpt lat="43.49604" lon="6.93164">
        <ele>101</ele>
        <time>2022-03-26T09:28:30Z</time>
      </trkpt>
      <trkpt lat="43.49585" lon="6.93183">
        <ele>106</ele>
        <time>2022-03-26T09:28:36Z</time>
      </trkpt>
      <trkpt lat="43.49578" lon="6.93195">
        <ele>108</ele>
        <time>2022-03-26T09:28:39Z</time>
      </trkpt>
      <trkpt lat="43.49577" lon="6.93205">
        <ele>108</ele>
        <time>2022-03-26T09:28:40Z</time>
      </trkpt>
      <trkpt lat="43.49577" lon="6.93206">
        <ele>108</ele>
        <time>2022-03-26T09:28:40Z</time>
      </trkpt>
      <trkpt lat="43.49578" lon="6.93207">
        <ele>107</ele>
        <time>2022-03-26T09:28:41Z</time>
      </trkpt>
      <trkpt lat="43.49579" lon="6.93209">
        <ele>107</ele>
        <time>2022-03-26T09:28:41Z</time>
      </trkpt>
      <trkpt lat="43.49583" lon="6.93214">
        <ele>105</ele>
        <time>2022-03-26T09:28:42Z</time>
      </trkpt>
      <trkpt lat="43.49613" lon="6.93241">
        <ele>94</ele>
        <time>2022-03-26T09:28:51Z</time>
      </trkpt>
      <trkpt lat="43.49615" lon="6.93245">
        <ele>93</ele>
        <time>2022-03-26T09:28:52Z</time>
      </trkpt>
      <trkpt lat="43.49617" lon="6.93247">
        <ele>92</ele>
        <time>2022-03-26T09:28:52Z</time>
      </trkpt>
      <trkpt lat="43.49618" lon="6.93249">
        <ele>92</ele>
        <time>2022-03-26T09:28:53Z</time>
      </trkpt>
      <trkpt lat="43.4962" lon="6.93253">
        <ele>91</ele>
        <time>2022-03-26T09:28:53Z</time>
      </trkpt>
      <trkpt lat="43.49621" lon="6.93257">
        <ele>90</ele>
        <time>2022-03-26T09:28:54Z</time>
      </trkpt>
      <trkpt lat="43.49622" lon="6.93262">
        <ele>89</ele>
        <time>2022-03-26T09:28:55Z</time>
      </trkpt>
      <trkpt lat="43.49622" lon="6.93268">
        <ele>89</ele>
        <time>2022-03-26T09:28:56Z</time>
      </trkpt>
      <trkpt lat="43.49622" lon="6.93277">
        <ele>88</ele>
        <time>2022-03-26T09:28:58Z</time>
      </trkpt>
      <trkpt lat="43.49621" lon="6.93289">
        <ele>87</ele>
        <time>2022-03-26T09:29:00Z</time>
      </trkpt>
      <trkpt lat="43.49618" lon="6.93304">
        <ele>87</ele>
        <time>2022-03-26T09:29:02Z</time>
      </trkpt>
      <trkpt lat="43.49615" lon="6.93311">
        <ele>87</ele>
        <time>2022-03-26T09:29:04Z</time>
      </trkpt>
      <trkpt lat="43.49611" lon="6.93316">
        <ele>88</ele>
        <time>2022-03-26T09:29:05Z</time>
      </trkpt>
      <trkpt lat="43.49584" lon="6.93331">
        <ele>95</ele>
        <time>2022-03-26T09:29:12Z</time>
      </trkpt>
      <trkpt lat="43.49574" lon="6.93341">
        <ele>99</ele>
        <time>2022-03-26T09:29:15Z</time>
      </trkpt>
      <trkpt lat="43.49569" lon="6.93351">
        <ele>102</ele>
        <time>2022-03-26T09:29:17Z</time>
      </trkpt>
      <trkpt lat="43.49569" lon="6.93355">
        <ele>103</ele>
        <time>2022-03-26T09:29:17Z</time>
      </trkpt>
      <trkpt lat="43.49571" lon="6.93362">
        <ele>103</ele>
        <time>2022-03-26T09:29:19Z</time>
      </trkpt>
      <trkpt lat="43.49575" lon="6.93365">
        <ele>101</ele>
        <time>2022-03-26T09:29:20Z</time>
      </trkpt>
      <trkpt lat="43.49581" lon="6.93368">
        <ele>99</ele>
        <time>2022-03-26T09:29:21Z</time>
      </trkpt>
      <trkpt lat="43.496" lon="6.93374">
        <ele>93</ele>
        <time>2022-03-26T09:29:26Z</time>
      </trkpt>
      <trkpt lat="43.49613" lon="6.93381">
        <ele>88</ele>
        <time>2022-03-26T09:29:29Z</time>
      </trkpt>
      <trkpt lat="43.49623" lon="6.93388">
        <ele>85</ele>
        <time>2022-03-26T09:29:32Z</time>
      </trkpt>
      <trkpt lat="43.49635" lon="6.93401">
        <ele>81</ele>
        <time>2022-03-26T09:29:35Z</time>
      </trkpt>
      <trkpt lat="43.49645" lon="6.93416">
        <ele>77</ele>
        <time>2022-03-26T09:29:39Z</time>
      </trkpt>
      <trkpt lat="43.49656" lon="6.93435">
        <ele>73</ele>
        <time>2022-03-26T09:29:43Z</time>
      </trkpt>
      <trkpt lat="43.49667" lon="6.93477">
        <ele>69</ele>
        <time>2022-03-26T09:29:50Z</time>
      </trkpt>
      <trkpt lat="43.49668" lon="6.93495">
        <ele>69</ele>
        <time>2022-03-26T09:29:53Z</time>
      </trkpt>
      <trkpt lat="43.49659" lon="6.93515">
        <ele>72</ele>
        <time>2022-03-26T09:29:57Z</time>
      </trkpt>
      <trkpt lat="43.49648" lon="6.93541">
        <ele>75</ele>
        <time>2022-03-26T09:30:02Z</time>
      </trkpt>
      <trkpt lat="43.49632" lon="6.93587">
        <ele>76</ele>
        <time>2022-03-26T09:30:11Z</time>
      </trkpt>
      <trkpt lat="43.49627" lon="6.93614">
        <ele>78</ele>
        <time>2022-03-26T09:30:16Z</time>
      </trkpt>
      <trkpt lat="43.49621" lon="6.93634">
        <ele>78</ele>
        <time>2022-03-26T09:30:19Z</time>
      </trkpt>
      <trkpt lat="43.49617" lon="6.9365">
        <ele>78</ele>
        <time>2022-03-26T09:30:22Z</time>
      </trkpt>
      <trkpt lat="43.49614" lon="6.93657">
        <ele>78</ele>
        <time>2022-03-26T09:30:24Z</time>
      </trkpt>
      <trkpt lat="43.49608" lon="6.93664">
        <ele>77</ele>
        <time>2022-03-26T09:30:25Z</time>
      </trkpt>
      <trkpt lat="43.49606" lon="6.93669">
        <ele>77</ele>
        <time>2022-03-26T09:30:26Z</time>
      </trkpt>
      <trkpt lat="43.49606" lon="6.93673">
        <ele>78</ele>
        <time>2022-03-26T09:30:27Z</time>
      </trkpt>
      <trkpt lat="43.49607" lon="6.93674">
        <ele>78</ele>
        <time>2022-03-26T09:30:27Z</time>
      </trkpt>
      <trkpt lat="43.49612" lon="6.93673">
        <ele>78</ele>
        <time>2022-03-26T09:30:29Z</time>
      </trkpt>
      <trkpt lat="43.49628" lon="6.93658">
        <ele>77</ele>
        <time>2022-03-26T09:30:33Z</time>
      </trkpt>
      <trkpt lat="43.49637" lon="6.93651">
        <ele>77</ele>
        <time>2022-03-26T09:30:36Z</time>
      </trkpt>
      <trkpt lat="43.49652" lon="6.93636">
        <ele>75</ele>
        <time>2022-03-26T09:30:40Z</time>
      </trkpt>
      <trkpt lat="43.49673" lon="6.93592">
        <ele>67</ele>
        <time>2022-03-26T09:30:49Z</time>
      </trkpt>
      <trkpt lat="43.49689" lon="6.9357">
        <ele>65</ele>
        <time>2022-03-26T09:30:54Z</time>
      </trkpt>
      <trkpt lat="43.49705" lon="6.93562">
        <ele>63</ele>
        <time>2022-03-26T09:30:58Z</time>
      </trkpt>
      <trkpt lat="43.49717" lon="6.93562">
        <ele>62</ele>
        <time>2022-03-26T09:31:01Z</time>
      </trkpt>
      <trkpt lat="43.49726" lon="6.93565">
        <ele>61</ele>
        <time>2022-03-26T09:31:03Z</time>
      </trkpt>
      <trkpt lat="43.49736" lon="6.93566">
        <ele>60</ele>
        <time>2022-03-26T09:31:05Z</time>
      </trkpt>
      <trkpt lat="43.49741" lon="6.93571">
        <ele>60</ele>
        <time>2022-03-26T09:31:07Z</time>
      </trkpt>
      <trkpt lat="43.4975" lon="6.9358">
        <ele>59</ele>
        <time>2022-03-26T09:31:09Z</time>
      </trkpt>
      <trkpt lat="43.4978" lon="6.93626">
        <ele>63</ele>
        <time>2022-03-26T09:31:20Z</time>
      </trkpt>
      <trkpt lat="43.49782" lon="6.93628">
        <ele>63</ele>
        <time>2022-03-26T09:31:20Z</time>
      </trkpt>
      <trkpt lat="43.49784" lon="6.93629">
        <ele>63</ele>
        <time>2022-03-26T09:31:21Z</time>
      </trkpt>
      <trkpt lat="43.49786" lon="6.93629">
        <ele>62</ele>
        <time>2022-03-26T09:31:21Z</time>
      </trkpt>
      <trkpt lat="43.49788" lon="6.93629">
        <ele>62</ele>
        <time>2022-03-26T09:31:22Z</time>
      </trkpt>
      <trkpt lat="43.49791" lon="6.93627">
        <ele>61</ele>
        <time>2022-03-26T09:31:23Z</time>
      </trkpt>
      <trkpt lat="43.49795" lon="6.93626">
        <ele>60</ele>
        <time>2022-03-26T09:31:24Z</time>
      </trkpt>
      <trkpt lat="43.49799" lon="6.93627">
        <ele>59</ele>
        <time>2022-03-26T09:31:25Z</time>
      </trkpt>
      <trkpt lat="43.49819" lon="6.93642">
        <ele>56</ele>
        <time>2022-03-26T09:31:30Z</time>
      </trkpt>
      <trkpt lat="43.49829" lon="6.93648">
        <ele>54</ele>
        <time>2022-03-26T09:31:32Z</time>
      </trkpt>
      <trkpt lat="43.49837" lon="6.93655">
        <ele>54</ele>
        <time>2022-03-26T09:31:35Z</time>
      </trkpt>
      <trkpt lat="43.49841" lon="6.93657">
        <ele>53</ele>
        <time>2022-03-26T09:31:36Z</time>
      </trkpt>
      <trkpt lat="43.49853" lon="6.93659">
        <ele>52</ele>
        <time>2022-03-26T09:31:38Z</time>
      </trkpt>
      <trkpt lat="43.49855" lon="6.93659">
        <ele>52</ele>
        <time>2022-03-26T09:31:39Z</time>
      </trkpt>
      <trkpt lat="43.49868" lon="6.93656">
        <ele>51</ele>
        <time>2022-03-26T09:31:42Z</time>
      </trkpt>
      <trkpt lat="43.49871" lon="6.93658">
        <ele>51</ele>
        <time>2022-03-26T09:31:43Z</time>
      </trkpt>
      <trkpt lat="43.49876" lon="6.93671">
        <ele>51</ele>
        <time>2022-03-26T09:31:45Z</time>
      </trkpt>
      <trkpt lat="43.49878" lon="6.93673">
        <ele>52</ele>
        <time>2022-03-26T09:31:46Z</time>
      </trkpt>
      <trkpt lat="43.49879" lon="6.93673">
        <ele>52</ele>
        <time>2022-03-26T09:31:46Z</time>
      </trkpt>
      <trkpt lat="43.49883" lon="6.93673">
        <ele>51</ele>
        <time>2022-03-26T09:31:47Z</time>
      </trkpt>
      <trkpt lat="43.49901" lon="6.93663">
        <ele>48</ele>
        <time>2022-03-26T09:31:52Z</time>
      </trkpt>
      <trkpt lat="43.4991" lon="6.93659">
        <ele>47</ele>
        <time>2022-03-26T09:31:54Z</time>
      </trkpt>
      <trkpt lat="43.49915" lon="6.93658">
        <ele>46</ele>
        <time>2022-03-26T09:31:55Z</time>
      </trkpt>
      <trkpt lat="43.49919" lon="6.93658">
        <ele>46</ele>
        <time>2022-03-26T09:31:56Z</time>
      </trkpt>
      <trkpt lat="43.49922" lon="6.93659">
        <ele>46</ele>
        <time>2022-03-26T09:31:57Z</time>
      </trkpt>
      <trkpt lat="43.49955" lon="6.93674">
        <ele>44</ele>
        <time>2022-03-26T09:32:05Z</time>
      </trkpt>
      <trkpt lat="43.49971" lon="6.93681">
        <ele>45</ele>
        <time>2022-03-26T09:32:09Z</time>
      </trkpt>
      <trkpt lat="43.50009" lon="6.93707">
        <ele>47</ele>
        <time>2022-03-26T09:32:19Z</time>
      </trkpt>
      <trkpt lat="43.50014" lon="6.93709">
        <ele>47</ele>
        <time>2022-03-26T09:32:20Z</time>
      </trkpt>
      <trkpt lat="43.50017" lon="6.93709">
        <ele>47</ele>
        <time>2022-03-26T09:32:20Z</time>
      </trkpt>
      <trkpt lat="43.50037" lon="6.93708">
        <ele>47</ele>
        <time>2022-03-26T09:32:25Z</time>
      </trkpt>
      <trkpt lat="43.50048" lon="6.93706">
        <ele>46</ele>
        <time>2022-03-26T09:32:28Z</time>
      </trkpt>
      <trkpt lat="43.50063" lon="6.93701">
        <ele>46</ele>
        <time>2022-03-26T09:32:31Z</time>
      </trkpt>
      <trkpt lat="43.50072" lon="6.937">
        <ele>46</ele>
        <time>2022-03-26T09:32:33Z</time>
      </trkpt>
      <trkpt lat="43.50075" lon="6.93702">
        <ele>46</ele>
        <time>2022-03-26T09:32:34Z</time>
      </trkpt>
      <trkpt lat="43.5008" lon="6.93701">
        <ele>46</ele>
        <time>2022-03-26T09:32:35Z</time>
      </trkpt>
      <trkpt lat="43.50089" lon="6.93709">
        <ele>47</ele>
        <time>2022-03-26T09:32:38Z</time>
      </trkpt>
      <trkpt lat="43.501" lon="6.93714">
        <ele>47</ele>
        <time>2022-03-26T09:32:41Z</time>
      </trkpt>
      <trkpt lat="43.50142" lon="6.93723">
        <ele>49</ele>
        <time>2022-03-26T09:32:50Z</time>
      </trkpt>
      <trkpt lat="43.50156" lon="6.93721">
        <ele>50</ele>
        <time>2022-03-26T09:32:54Z</time>
      </trkpt>
      <trkpt lat="43.50185" lon="6.93713">
        <ele>50</ele>
        <time>2022-03-26T09:33:01Z</time>
      </trkpt>
      <trkpt lat="43.5019" lon="6.93713">
        <ele>50</ele>
        <time>2022-03-26T09:33:02Z</time>
      </trkpt>
      <trkpt lat="43.50195" lon="6.93716">
        <ele>50</ele>
        <time>2022-03-26T09:33:03Z</time>
      </trkpt>
      <trkpt lat="43.50206" lon="6.93719">
        <ele>49</ele>
        <time>2022-03-26T09:33:06Z</time>
      </trkpt>
      <trkpt lat="43.50218" lon="6.93718">
        <ele>49</ele>
        <time>2022-03-26T09:33:09Z</time>
      </trkpt>
      <trkpt lat="43.50253" lon="6.93704">
        <ele>48</ele>
        <time>2022-03-26T09:33:17Z</time>
      </trkpt>
      <trkpt lat="43.50266" lon="6.93697">
        <ele>46</ele>
        <time>2022-03-26T09:33:20Z</time>
      </trkpt>
      <trkpt lat="43.50271" lon="6.93695">
        <ele>46</ele>
        <time>2022-03-26T09:33:22Z</time>
      </trkpt>
      <trkpt lat="43.50276" lon="6.93694">
        <ele>45</ele>
        <time>2022-03-26T09:33:23Z</time>
      </trkpt>
      <trkpt lat="43.50281" lon="6.93693">
        <ele>45</ele>
        <time>2022-03-26T09:33:24Z</time>
      </trkpt>
      <trkpt lat="43.50285" lon="6.93694">
        <ele>44</ele>
        <time>2022-03-26T09:33:25Z</time>
      </trkpt>
      <trkpt lat="43.50289" lon="6.93694">
        <ele>44</ele>
        <time>2022-03-26T09:33:26Z</time>
      </trkpt>
      <trkpt lat="43.50309" lon="6.93706">
        <ele>41</ele>
        <time>2022-03-26T09:33:31Z</time>
      </trkpt>
      <trkpt lat="43.50316" lon="6.93713">
        <ele>40</ele>
        <time>2022-03-26T09:33:33Z</time>
      </trkpt>
      <trkpt lat="43.50321" lon="6.9372">
        <ele>39</ele>
        <time>2022-03-26T09:33:35Z</time>
      </trkpt>
      <trkpt lat="43.5034" lon="6.93742">
        <ele>37</ele>
        <time>2022-03-26T09:33:40Z</time>
      </trkpt>
      <trkpt lat="43.5034" lon="6.93742">
        <ele>37</ele>
        <time>2022-03-26T09:33:40Z</time>
      </trkpt>
      <trkpt lat="43.5034" lon="6.93747">
        <ele>37</ele>
        <time>2022-03-26T09:33:41Z</time>
      </trkpt>
      <trkpt lat="43.5034" lon="6.93752">
        <ele>38</ele>
        <time>2022-03-26T09:33:42Z</time>
      </trkpt>
      <trkpt lat="43.50342" lon="6.93757">
        <ele>39</ele>
        <time>2022-03-26T09:33:43Z</time>
      </trkpt>
      <trkpt lat="43.50347" lon="6.93761">
        <ele>39</ele>
        <time>2022-03-26T09:33:44Z</time>
      </trkpt>
      <trkpt lat="43.50359" lon="6.93763">
        <ele>38</ele>
        <time>2022-03-26T09:33:47Z</time>
      </trkpt>
      <trkpt lat="43.50369" lon="6.93767">
        <ele>37</ele>
        <time>2022-03-26T09:33:50Z</time>
      </trkpt>
      <trkpt lat="43.50378" lon="6.93773">
        <ele>36</ele>
        <time>2022-03-26T09:33:52Z</time>
      </trkpt>
      <trkpt lat="43.50383" lon="6.93778">
        <ele>35</ele>
        <time>2022-03-26T09:33:53Z</time>
      </trkpt>
      <trkpt lat="43.50386" lon="6.93782">
        <ele>35</ele>
        <time>2022-03-26T09:33:54Z</time>
      </trkpt>
      <trkpt lat="43.50391" lon="6.93789">
        <ele>34</ele>
        <time>2022-03-26T09:33:56Z</time>
      </trkpt>
      <trkpt lat="43.50395" lon="6.93794">
        <ele>34</ele>
        <time>2022-03-26T09:33:57Z</time>
      </trkpt>
      <trkpt lat="43.50397" lon="6.93798">
        <ele>33</ele>
        <time>2022-03-26T09:33:58Z</time>
      </trkpt>
      <trkpt lat="43.50398" lon="6.93799">
        <ele>33</ele>
        <time>2022-03-26T09:33:58Z</time>
      </trkpt>
      <trkpt lat="43.50401" lon="6.93805">
        <ele>32</ele>
        <time>2022-03-26T09:34:00Z</time>
      </trkpt>
      <trkpt lat="43.50403" lon="6.93812">
        <ele>32</ele>
        <time>2022-03-26T09:34:01Z</time>
      </trkpt>
      <trkpt lat="43.50405" lon="6.9382">
        <ele>31</ele>
        <time>2022-03-26T09:34:02Z</time>
      </trkpt>
      <trkpt lat="43.50406" lon="6.93826">
        <ele>31</ele>
        <time>2022-03-26T09:34:03Z</time>
      </trkpt>
      <trkpt lat="43.50407" lon="6.93832">
        <ele>31</ele>
        <time>2022-03-26T09:34:04Z</time>
      </trkpt>
      <trkpt lat="43.50407" lon="6.93837">
        <ele>32</ele>
        <time>2022-03-26T09:34:05Z</time>
      </trkpt>
      <trkpt lat="43.50408" lon="6.93842">
        <ele>32</ele>
        <time>2022-03-26T09:34:06Z</time>
      </trkpt>
      <trkpt lat="43.5041" lon="6.93845">
        <ele>32</ele>
        <time>2022-03-26T09:34:07Z</time>
      </trkpt>
      <trkpt lat="43.50411" lon="6.93848">
        <ele>32</ele>
        <time>2022-03-26T09:34:07Z</time>
      </trkpt>
      <trkpt lat="43.50414" lon="6.93851">
        <ele>31</ele>
        <time>2022-03-26T09:34:08Z</time>
      </trkpt>
      <trkpt lat="43.50414" lon="6.93851">
        <ele>31</ele>
        <time>2022-03-26T09:34:08Z</time>
      </trkpt>
      <trkpt lat="43.50413" lon="6.93852">
        <ele>32</ele>
        <time>2022-03-26T09:34:09Z</time>
      </trkpt>
      <trkpt lat="43.50413" lon="6.93853">
        <ele>32</ele>
        <time>2022-03-26T09:34:09Z</time>
      </trkpt>
      <trkpt lat="43.50412" lon="6.93853">
        <ele>32</ele>
        <time>2022-03-26T09:34:09Z</time>
      </trkpt>
      <trkpt lat="43.50412" lon="6.93854">
        <ele>32</ele>
        <time>2022-03-26T09:34:09Z</time>
      </trkpt>
      <trkpt lat="43.50411" lon="6.93855">
        <ele>33</ele>
        <time>2022-03-26T09:34:09Z</time>
      </trkpt>
      <trkpt lat="43.5041" lon="6.93856">
        <ele>34</ele>
        <time>2022-03-26T09:34:10Z</time>
      </trkpt>
      <trkpt lat="43.5041" lon="6.93857">
        <ele>34</ele>
        <time>2022-03-26T09:34:10Z</time>
      </trkpt>
      <trkpt lat="43.50409" lon="6.93858">
        <ele>34</ele>
        <time>2022-03-26T09:34:10Z</time>
      </trkpt>
      <trkpt lat="43.50409" lon="6.93859">
        <ele>35</ele>
        <time>2022-03-26T09:34:10Z</time>
      </trkpt>
      <trkpt lat="43.50409" lon="6.9386">
        <ele>35</ele>
        <time>2022-03-26T09:34:11Z</time>
      </trkpt>
      <trkpt lat="43.50409" lon="6.93861">
        <ele>35</ele>
        <time>2022-03-26T09:34:11Z</time>
      </trkpt>
      <trkpt lat="43.50408" lon="6.93862">
        <ele>36</ele>
        <time>2022-03-26T09:34:11Z</time>
      </trkpt>
      <trkpt lat="43.50408" lon="6.93863">
        <ele>36</ele>
        <time>2022-03-26T09:34:11Z</time>
      </trkpt>
      <trkpt lat="43.50408" lon="6.93864">
        <ele>36</ele>
        <time>2022-03-26T09:34:11Z</time>
      </trkpt>
      <trkpt lat="43.50408" lon="6.93865">
        <ele>36</ele>
        <time>2022-03-26T09:34:11Z</time>
      </trkpt>
      <trkpt lat="43.50408" lon="6.93866">
        <ele>36</ele>
        <time>2022-03-26T09:34:12Z</time>
      </trkpt>
      <trkpt lat="43.50408" lon="6.93868">
        <ele>37</ele>
        <time>2022-03-26T09:34:12Z</time>
      </trkpt>
      <trkpt lat="43.50408" lon="6.93869">
        <ele>37</ele>
        <time>2022-03-26T09:34:12Z</time>
      </trkpt>
      <trkpt lat="43.50409" lon="6.9387">
        <ele>37</ele>
        <time>2022-03-26T09:34:12Z</time>
      </trkpt>
      <trkpt lat="43.50409" lon="6.93871">
        <ele>37</ele>
        <time>2022-03-26T09:34:13Z</time>
      </trkpt>
      <trkpt lat="43.50409" lon="6.93872">
        <ele>37</ele>
        <time>2022-03-26T09:34:13Z</time>
      </trkpt>
      <trkpt lat="43.50409" lon="6.93873">
        <ele>37</ele>
        <time>2022-03-26T09:34:13Z</time>
      </trkpt>
      <trkpt lat="43.5041" lon="6.93874">
        <ele>37</ele>
        <time>2022-03-26T09:34:13Z</time>
      </trkpt>
      <trkpt lat="43.5041" lon="6.93875">
        <ele>37</ele>
        <time>2022-03-26T09:34:13Z</time>
      </trkpt>
      <trkpt lat="43.50411" lon="6.93876">
        <ele>37</ele>
        <time>2022-03-26T09:34:14Z</time>
      </trkpt>
      <trkpt lat="43.50411" lon="6.93877">
        <ele>37</ele>
        <time>2022-03-26T09:34:14Z</time>
      </trkpt>
      <trkpt lat="43.50417" lon="6.93885">
        <ele>36</ele>
        <time>2022-03-26T09:34:16Z</time>
      </trkpt>
      <trkpt lat="43.50422" lon="6.9389">
        <ele>35</ele>
        <time>2022-03-26T09:34:17Z</time>
      </trkpt>
      <trkpt lat="43.50428" lon="6.93895">
        <ele>35</ele>
        <time>2022-03-26T09:34:19Z</time>
      </trkpt>
      <trkpt lat="43.50434" lon="6.939">
        <ele>34</ele>
        <time>2022-03-26T09:34:21Z</time>
      </trkpt>
      <trkpt lat="43.50439" lon="6.93904">
        <ele>33</ele>
        <time>2022-03-26T09:34:22Z</time>
      </trkpt>
      <trkpt lat="43.50443" lon="6.93909">
        <ele>33</ele>
        <time>2022-03-26T09:34:23Z</time>
      </trkpt>
      <trkpt lat="43.50449" lon="6.93918">
        <ele>32</ele>
        <time>2022-03-26T09:34:25Z</time>
      </trkpt>
      <trkpt lat="43.50455" lon="6.93928">
        <ele>34</ele>
        <time>2022-03-26T09:34:27Z</time>
      </trkpt>
      <trkpt lat="43.50462" lon="6.93942">
        <ele>36</ele>
        <time>2022-03-26T09:34:30Z</time>
      </trkpt>
      <trkpt lat="43.50468" lon="6.93952">
        <ele>37</ele>
        <time>2022-03-26T09:34:32Z</time>
      </trkpt>
      <trkpt lat="43.50476" lon="6.93965">
        <ele>38</ele>
        <time>2022-03-26T09:34:35Z</time>
      </trkpt>
      <trkpt lat="43.50485" lon="6.93976">
        <ele>37</ele>
        <time>2022-03-26T09:34:38Z</time>
      </trkpt>
      <trkpt lat="43.50504" lon="6.93997">
        <ele>34</ele>
        <time>2022-03-26T09:34:44Z</time>
      </trkpt>
      <trkpt lat="43.50524" lon="6.94019">
        <ele>35</ele>
        <time>2022-03-26T09:34:50Z</time>
      </trkpt>
      <trkpt lat="43.50538" lon="6.94033">
        <ele>34</ele>
        <time>2022-03-26T09:34:54Z</time>
      </trkpt>
      <trkpt lat="43.50543" lon="6.94039">
        <ele>34</ele>
        <time>2022-03-26T09:34:55Z</time>
      </trkpt>
      <trkpt lat="43.50543" lon="6.94039">
        <ele>34</ele>
        <time>2022-03-26T09:34:55Z</time>
      </trkpt>
      <trkpt lat="43.50542" lon="6.9404">
        <ele>35</ele>
        <time>2022-03-26T09:34:56Z</time>
      </trkpt>
      <trkpt lat="43.50541" lon="6.94041">
        <ele>36</ele>
        <time>2022-03-26T09:34:56Z</time>
      </trkpt>
      <trkpt lat="43.5054" lon="6.94042">
        <ele>36</ele>
        <time>2022-03-26T09:34:56Z</time>
      </trkpt>
      <trkpt lat="43.50539" lon="6.94042">
        <ele>37</ele>
        <time>2022-03-26T09:34:57Z</time>
      </trkpt>
      <trkpt lat="43.50537" lon="6.94042">
        <ele>37</ele>
        <time>2022-03-26T09:34:57Z</time>
      </trkpt>
      <trkpt lat="43.50536" lon="6.94043">
        <ele>38</ele>
        <time>2022-03-26T09:34:57Z</time>
      </trkpt>
      <trkpt lat="43.50535" lon="6.94042">
        <ele>38</ele>
        <time>2022-03-26T09:34:58Z</time>
      </trkpt>
      <trkpt lat="43.50534" lon="6.94042">
        <ele>39</ele>
        <time>2022-03-26T09:34:58Z</time>
      </trkpt>
      <trkpt lat="43.50531" lon="6.9404">
        <ele>39</ele>
        <time>2022-03-26T09:34:59Z</time>
      </trkpt>
      <trkpt lat="43.50528" lon="6.94037">
        <ele>39</ele>
        <time>2022-03-26T09:34:59Z</time>
      </trkpt>
      <trkpt lat="43.50524" lon="6.94032">
        <ele>39</ele>
        <time>2022-03-26T09:35:01Z</time>
      </trkpt>
      <trkpt lat="43.50519" lon="6.94027">
        <ele>39</ele>
        <time>2022-03-26T09:35:02Z</time>
      </trkpt>
      <trkpt lat="43.50517" lon="6.94024">
        <ele>39</ele>
        <time>2022-03-26T09:35:03Z</time>
      </trkpt>
      <trkpt lat="43.50515" lon="6.94022">
        <ele>39</ele>
        <time>2022-03-26T09:35:03Z</time>
      </trkpt>
      <trkpt lat="43.50512" lon="6.94018">
        <ele>39</ele>
        <time>2022-03-26T09:35:04Z</time>
      </trkpt>
      <trkpt lat="43.50508" lon="6.94015">
        <ele>39</ele>
        <time>2022-03-26T09:35:05Z</time>
      </trkpt>
      <trkpt lat="43.50505" lon="6.94012">
        <ele>39</ele>
        <time>2022-03-26T09:35:06Z</time>
      </trkpt>
      <trkpt lat="43.505" lon="6.94009">
        <ele>39</ele>
        <time>2022-03-26T09:35:08Z</time>
      </trkpt>
      <trkpt lat="43.50496" lon="6.94007">
        <ele>41</ele>
        <time>2022-03-26T09:35:09Z</time>
      </trkpt>
      <trkpt lat="43.50493" lon="6.94005">
        <ele>41</ele>
        <time>2022-03-26T09:35:09Z</time>
      </trkpt>
      <trkpt lat="43.50489" lon="6.94003">
        <ele>43</ele>
        <time>2022-03-26T09:35:10Z</time>
      </trkpt>
      <trkpt lat="43.50483" lon="6.93999">
        <ele>44</ele>
        <time>2022-03-26T09:35:12Z</time>
      </trkpt>
      <trkpt lat="43.50479" lon="6.93997">
        <ele>45</ele>
        <time>2022-03-26T09:35:13Z</time>
      </trkpt>
      <trkpt lat="43.50477" lon="6.93996">
        <ele>46</ele>
        <time>2022-03-26T09:35:13Z</time>
      </trkpt>
      <trkpt lat="43.50474" lon="6.93994">
        <ele>47</ele>
        <time>2022-03-26T09:35:14Z</time>
      </trkpt>
      <trkpt lat="43.50472" lon="6.93994">
        <ele>48</ele>
        <time>2022-03-26T09:35:15Z</time>
      </trkpt>
      <trkpt lat="43.50469" lon="6.93996">
        <ele>50</ele>
        <time>2022-03-26T09:35:15Z</time>
      </trkpt>
      <trkpt lat="43.50454" lon="6.93979">
        <ele>51</ele>
        <time>2022-03-26T09:35:20Z</time>
      </trkpt>
      <trkpt lat="43.50444" lon="6.93968">
        <ele>52</ele>
        <time>2022-03-26T09:35:23Z</time>
      </trkpt>
      <trkpt lat="43.50436" lon="6.9396">
        <ele>52</ele>
        <time>2022-03-26T09:35:25Z</time>
      </trkpt>
      <trkpt lat="43.50422" lon="6.93953">
        <ele>55</ele>
        <time>2022-03-26T09:35:29Z</time>
      </trkpt>
      <trkpt lat="43.50413" lon="6.93949">
        <ele>57</ele>
        <time>2022-03-26T09:35:31Z</time>
      </trkpt>
      <trkpt lat="43.50407" lon="6.93948">
        <ele>59</ele>
        <time>2022-03-26T09:35:32Z</time>
      </trkpt>
      <trkpt lat="43.504" lon="6.93946">
        <ele>62</ele>
        <time>2022-03-26T09:35:34Z</time>
      </trkpt>
      <trkpt lat="43.50392" lon="6.93944">
        <ele>65</ele>
        <time>2022-03-26T09:35:36Z</time>
      </trkpt>
      <trkpt lat="43.50387" lon="6.93942">
        <ele>67</ele>
        <time>2022-03-26T09:35:37Z</time>
      </trkpt>
      <trkpt lat="43.50381" lon="6.93938">
        <ele>68</ele>
        <time>2022-03-26T09:35:39Z</time>
      </trkpt>
      <trkpt lat="43.50378" lon="6.93935">
        <ele>68</ele>
        <time>2022-03-26T09:35:40Z</time>
      </trkpt>
      <trkpt lat="43.50375" lon="6.93931">
        <ele>68</ele>
        <time>2022-03-26T09:35:41Z</time>
      </trkpt>
      <trkpt lat="43.50372" lon="6.93924">
        <ele>67</ele>
        <time>2022-03-26T09:35:42Z</time>
      </trkpt>
      <trkpt lat="43.5037" lon="6.93915">
        <ele>65</ele>
        <time>2022-03-26T09:35:44Z</time>
      </trkpt>
      <trkpt lat="43.50368" lon="6.93905">
        <ele>64</ele>
        <time>2022-03-26T09:35:45Z</time>
      </trkpt>
      <trkpt lat="43.50363" lon="6.93886">
        <ele>62</ele>
        <time>2022-03-26T09:35:49Z</time>
      </trkpt>
      <trkpt lat="43.50359" lon="6.93871">
        <ele>60</ele>
        <time>2022-03-26T09:35:51Z</time>
      </trkpt>
      <trkpt lat="43.50355" lon="6.93857">
        <ele>58</ele>
        <time>2022-03-26T09:35:54Z</time>
      </trkpt>
      <trkpt lat="43.50352" lon="6.93848">
        <ele>57</ele>
        <time>2022-03-26T09:35:56Z</time>
      </trkpt>
      <trkpt lat="43.5035" lon="6.93844">
        <ele>56</ele>
        <time>2022-03-26T09:35:56Z</time>
      </trkpt>
      <trkpt lat="43.50347" lon="6.93842">
        <ele>57</ele>
        <time>2022-03-26T09:35:57Z</time>
      </trkpt>
      <trkpt lat="43.50344" lon="6.9384">
        <ele>58</ele>
        <time>2022-03-26T09:35:58Z</time>
      </trkpt>
      <trkpt lat="43.5034" lon="6.93839">
        <ele>59</ele>
        <time>2022-03-26T09:35:59Z</time>
      </trkpt>
      <trkpt lat="43.50335" lon="6.93839">
        <ele>61</ele>
        <time>2022-03-26T09:36:00Z</time>
      </trkpt>
      <trkpt lat="43.50329" lon="6.93838">
        <ele>62</ele>
        <time>2022-03-26T09:36:02Z</time>
      </trkpt>
      <trkpt lat="43.50326" lon="6.93836">
        <ele>62</ele>
        <time>2022-03-26T09:36:02Z</time>
      </trkpt>
      <trkpt lat="43.50323" lon="6.93834">
        <ele>62</ele>
        <time>2022-03-26T09:36:03Z</time>
      </trkpt>
      <trkpt lat="43.50319" lon="6.9383">
        <ele>62</ele>
        <time>2022-03-26T09:36:04Z</time>
      </trkpt>
      <trkpt lat="43.50315" lon="6.93825">
        <ele>61</ele>
        <time>2022-03-26T09:36:06Z</time>
      </trkpt>
      <trkpt lat="43.5031" lon="6.93822">
        <ele>61</ele>
        <time>2022-03-26T09:36:07Z</time>
      </trkpt>
      <trkpt lat="43.50306" lon="6.9382">
        <ele>61</ele>
        <time>2022-03-26T09:36:08Z</time>
      </trkpt>
      <trkpt lat="43.50299" lon="6.93816">
        <ele>61</ele>
        <time>2022-03-26T09:36:10Z</time>
      </trkpt>
      <trkpt lat="43.50291" lon="6.93812">
        <ele>62</ele>
        <time>2022-03-26T09:36:12Z</time>
      </trkpt>
      <trkpt lat="43.50283" lon="6.9381">
        <ele>62</ele>
        <time>2022-03-26T09:36:13Z</time>
      </trkpt>
      <trkpt lat="43.50276" lon="6.93809">
        <ele>63</ele>
        <time>2022-03-26T09:36:15Z</time>
      </trkpt>
      <trkpt lat="43.50272" lon="6.93808">
        <ele>64</ele>
        <time>2022-03-26T09:36:16Z</time>
      </trkpt>
      <trkpt lat="43.50267" lon="6.93808">
        <ele>64</ele>
        <time>2022-03-26T09:36:17Z</time>
      </trkpt>
      <trkpt lat="43.50263" lon="6.93809">
        <ele>65</ele>
        <time>2022-03-26T09:36:18Z</time>
      </trkpt>
      <trkpt lat="43.50259" lon="6.9381">
        <ele>66</ele>
        <time>2022-03-26T09:36:19Z</time>
      </trkpt>
      <trkpt lat="43.50254" lon="6.93812">
        <ele>68</ele>
        <time>2022-03-26T09:36:20Z</time>
      </trkpt>
      <trkpt lat="43.5025" lon="6.93814">
        <ele>69</ele>
        <time>2022-03-26T09:36:21Z</time>
      </trkpt>
      <trkpt lat="43.50243" lon="6.93818">
        <ele>71</ele>
        <time>2022-03-26T09:36:23Z</time>
      </trkpt>
      <trkpt lat="43.50231" lon="6.93825">
        <ele>74</ele>
        <time>2022-03-26T09:36:26Z</time>
      </trkpt>
      <trkpt lat="43.50219" lon="6.9383">
        <ele>76</ele>
        <time>2022-03-26T09:36:29Z</time>
      </trkpt>
      <trkpt lat="43.50208" lon="6.93835">
        <ele>78</ele>
        <time>2022-03-26T09:36:32Z</time>
      </trkpt>
      <trkpt lat="43.50201" lon="6.93839">
        <ele>79</ele>
        <time>2022-03-26T09:36:34Z</time>
      </trkpt>
      <trkpt lat="43.50197" lon="6.9384">
        <ele>79</ele>
        <time>2022-03-26T09:36:34Z</time>
      </trkpt>
      <trkpt lat="43.50188" lon="6.93837">
        <ele>79</ele>
        <time>2022-03-26T09:36:37Z</time>
      </trkpt>
      <trkpt lat="43.50186" lon="6.93835">
        <ele>78</ele>
        <time>2022-03-26T09:36:37Z</time>
      </trkpt>
      <trkpt lat="43.50179" lon="6.93831">
        <ele>77</ele>
        <time>2022-03-26T09:36:39Z</time>
      </trkpt>
      <trkpt lat="43.50174" lon="6.93832">
        <ele>77</ele>
        <time>2022-03-26T09:36:40Z</time>
      </trkpt>
      <trkpt lat="43.50167" lon="6.93834">
        <ele>78</ele>
        <time>2022-03-26T09:36:42Z</time>
      </trkpt>
      <trkpt lat="43.50152" lon="6.93845">
        <ele>81</ele>
        <time>2022-03-26T09:36:46Z</time>
      </trkpt>
      <trkpt lat="43.50149" lon="6.93846">
        <ele>81</ele>
        <time>2022-03-26T09:36:47Z</time>
      </trkpt>
      <trkpt lat="43.50146" lon="6.93847">
        <ele>81</ele>
        <time>2022-03-26T09:36:47Z</time>
      </trkpt>
      <trkpt lat="43.50144" lon="6.93847">
        <ele>81</ele>
        <time>2022-03-26T09:36:48Z</time>
      </trkpt>
      <trkpt lat="43.50128" lon="6.93846">
        <ele>80</ele>
        <time>2022-03-26T09:36:51Z</time>
      </trkpt>
      <trkpt lat="43.50122" lon="6.93846">
        <ele>80</ele>
        <time>2022-03-26T09:36:53Z</time>
      </trkpt>
      <trkpt lat="43.50118" lon="6.93848">
        <ele>81</ele>
        <time>2022-03-26T09:36:54Z</time>
      </trkpt>
      <trkpt lat="43.50113" lon="6.9385">
        <ele>81</ele>
        <time>2022-03-26T09:36:55Z</time>
      </trkpt>
      <trkpt lat="43.50109" lon="6.93858">
        <ele>83</ele>
        <time>2022-03-26T09:36:57Z</time>
      </trkpt>
      <trkpt lat="43.50102" lon="6.93879">
        <ele>87</ele>
        <time>2022-03-26T09:37:01Z</time>
      </trkpt>
      <trkpt lat="43.50095" lon="6.93894">
        <ele>90</ele>
        <time>2022-03-26T09:37:04Z</time>
      </trkpt>
      <trkpt lat="43.50091" lon="6.93908">
        <ele>93</ele>
        <time>2022-03-26T09:37:06Z</time>
      </trkpt>
      <trkpt lat="43.5009" lon="6.93917">
        <ele>95</ele>
        <time>2022-03-26T09:37:08Z</time>
      </trkpt>
      <trkpt lat="43.50089" lon="6.93929">
        <ele>98</ele>
        <time>2022-03-26T09:37:10Z</time>
      </trkpt>
      <trkpt lat="43.50087" lon="6.93936">
        <ele>99</ele>
        <time>2022-03-26T09:37:11Z</time>
      </trkpt>
      <trkpt lat="43.50086" lon="6.93941">
        <ele>100</ele>
        <time>2022-03-26T09:37:12Z</time>
      </trkpt>
      <trkpt lat="43.50084" lon="6.93948">
        <ele>102</ele>
        <time>2022-03-26T09:37:13Z</time>
      </trkpt>
      <trkpt lat="43.50083" lon="6.93953">
        <ele>103</ele>
        <time>2022-03-26T09:37:14Z</time>
      </trkpt>
      <trkpt lat="43.50083" lon="6.93958">
        <ele>104</ele>
        <time>2022-03-26T09:37:15Z</time>
      </trkpt>
      <trkpt lat="43.50084" lon="6.93964">
        <ele>106</ele>
        <time>2022-03-26T09:37:16Z</time>
      </trkpt>
      <trkpt lat="43.50086" lon="6.93968">
        <ele>107</ele>
        <time>2022-03-26T09:37:17Z</time>
      </trkpt>
      <trkpt lat="43.50088" lon="6.93971">
        <ele>108</ele>
        <time>2022-03-26T09:37:18Z</time>
      </trkpt>
      <trkpt lat="43.50088" lon="6.93971">
        <ele>108</ele>
        <time>2022-03-26T09:37:18Z</time>
      </trkpt>
      <trkpt lat="43.5009" lon="6.93971">
        <ele>108</ele>
        <time>2022-03-26T09:37:18Z</time>
      </trkpt>
      <trkpt lat="43.50092" lon="6.9397">
        <ele>108</ele>
        <time>2022-03-26T09:37:18Z</time>
      </trkpt>
      <trkpt lat="43.50093" lon="6.93969">
        <ele>108</ele>
        <time>2022-03-26T09:37:19Z</time>
      </trkpt>
      <trkpt lat="43.50094" lon="6.93967">
        <ele>108</ele>
        <time>2022-03-26T09:37:19Z</time>
      </trkpt>
      <trkpt lat="43.50095" lon="6.93965">
        <ele>107</ele>
        <time>2022-03-26T09:37:20Z</time>
      </trkpt>
      <trkpt lat="43.50096" lon="6.93962">
        <ele>107</ele>
        <time>2022-03-26T09:37:20Z</time>
      </trkpt>
      <trkpt lat="43.50096" lon="6.93955">
        <ele>105</ele>
        <time>2022-03-26T09:37:21Z</time>
      </trkpt>
      <trkpt lat="43.50098" lon="6.93946">
        <ele>103</ele>
        <time>2022-03-26T09:37:23Z</time>
      </trkpt>
      <trkpt lat="43.50103" lon="6.93926">
        <ele>99</ele>
        <time>2022-03-26T09:37:27Z</time>
      </trkpt>
      <trkpt lat="43.50107" lon="6.93918">
        <ele>97</ele>
        <time>2022-03-26T09:37:28Z</time>
      </trkpt>
      <trkpt lat="43.50111" lon="6.93914">
        <ele>97</ele>
        <time>2022-03-26T09:37:29Z</time>
      </trkpt>
      <trkpt lat="43.50112" lon="6.93913">
        <ele>97</ele>
        <time>2022-03-26T09:37:30Z</time>
      </trkpt>
      <trkpt lat="43.50118" lon="6.93911">
        <ele>97</ele>
        <time>2022-03-26T09:37:31Z</time>
      </trkpt>
      <trkpt lat="43.50125" lon="6.93912">
        <ele>98</ele>
        <time>2022-03-26T09:37:33Z</time>
      </trkpt>
      <trkpt lat="43.50133" lon="6.93917">
        <ele>100</ele>
        <time>2022-03-26T09:37:35Z</time>
      </trkpt>
      <trkpt lat="43.50137" lon="6.93922">
        <ele>102</ele>
        <time>2022-03-26T09:37:36Z</time>
      </trkpt>
      <trkpt lat="43.5014" lon="6.93928">
        <ele>103</ele>
        <time>2022-03-26T09:37:37Z</time>
      </trkpt>
      <trkpt lat="43.50143" lon="6.93931">
        <ele>105</ele>
        <time>2022-03-26T09:37:38Z</time>
      </trkpt>
      <trkpt lat="43.50148" lon="6.93934">
        <ele>106</ele>
        <time>2022-03-26T09:37:39Z</time>
      </trkpt>
      <trkpt lat="43.50154" lon="6.93936">
        <ele>107</ele>
        <time>2022-03-26T09:37:41Z</time>
      </trkpt>
      <trkpt lat="43.50164" lon="6.93936">
        <ele>108</ele>
        <time>2022-03-26T09:37:43Z</time>
      </trkpt>
      <trkpt lat="43.50178" lon="6.93938">
        <ele>109</ele>
        <time>2022-03-26T09:37:46Z</time>
      </trkpt>
      <trkpt lat="43.50185" lon="6.93939">
        <ele>109</ele>
        <time>2022-03-26T09:37:48Z</time>
      </trkpt>
      <trkpt lat="43.50191" lon="6.9394">
        <ele>110</ele>
        <time>2022-03-26T09:37:49Z</time>
      </trkpt>
      <trkpt lat="43.50197" lon="6.93944">
        <ele>111</ele>
        <time>2022-03-26T09:37:51Z</time>
      </trkpt>
      <trkpt lat="43.50201" lon="6.93949">
        <ele>112</ele>
        <time>2022-03-26T09:37:52Z</time>
      </trkpt>
      <trkpt lat="43.50204" lon="6.93956">
        <ele>114</ele>
        <time>2022-03-26T09:37:54Z</time>
      </trkpt>
      <trkpt lat="43.50208" lon="6.93961">
        <ele>115</ele>
        <time>2022-03-26T09:37:55Z</time>
      </trkpt>
      <trkpt lat="43.5021" lon="6.93965">
        <ele>116</ele>
        <time>2022-03-26T09:37:56Z</time>
      </trkpt>
      <trkpt lat="43.50216" lon="6.93969">
        <ele>117</ele>
        <time>2022-03-26T09:37:57Z</time>
      </trkpt>
      <trkpt lat="43.50225" lon="6.93971">
        <ele>118</ele>
        <time>2022-03-26T09:37:59Z</time>
      </trkpt>
      <trkpt lat="43.50241" lon="6.9397">
        <ele>118</ele>
        <time>2022-03-26T09:38:03Z</time>
      </trkpt>
      <trkpt lat="43.50249" lon="6.93971">
        <ele>118</ele>
        <time>2022-03-26T09:38:05Z</time>
      </trkpt>
      <trkpt lat="43.50252" lon="6.93973">
        <ele>118</ele>
        <time>2022-03-26T09:38:06Z</time>
      </trkpt>
      <trkpt lat="43.50256" lon="6.93975">
        <ele>118</ele>
        <time>2022-03-26T09:38:07Z</time>
      </trkpt>
      <trkpt lat="43.50276" lon="6.93993">
        <ele>119</ele>
        <time>2022-03-26T09:38:12Z</time>
      </trkpt>
      <trkpt lat="43.5029" lon="6.94011">
        <ele>122</ele>
        <time>2022-03-26T09:38:17Z</time>
      </trkpt>
      <trkpt lat="43.50299" lon="6.94026">
        <ele>124</ele>
        <time>2022-03-26T09:38:20Z</time>
      </trkpt>
      <trkpt lat="43.50302" lon="6.94032">
        <ele>125</ele>
        <time>2022-03-26T09:38:21Z</time>
      </trkpt>
      <trkpt lat="43.50304" lon="6.94035">
        <ele>126</ele>
        <time>2022-03-26T09:38:22Z</time>
      </trkpt>
      <trkpt lat="43.50304" lon="6.94038">
        <ele>127</ele>
        <time>2022-03-26T09:38:23Z</time>
      </trkpt>
      <trkpt lat="43.50304" lon="6.9404">
        <ele>127</ele>
        <time>2022-03-26T09:38:23Z</time>
      </trkpt>
      <trkpt lat="43.50304" lon="6.9404">
        <ele>127</ele>
        <time>2022-03-26T09:38:23Z</time>
      </trkpt>
      <trkpt lat="43.50303" lon="6.94043">
        <ele>128</ele>
        <time>2022-03-26T09:38:24Z</time>
      </trkpt>
      <trkpt lat="43.50302" lon="6.94045">
        <ele>129</ele>
        <time>2022-03-26T09:38:24Z</time>
      </trkpt>
      <trkpt lat="43.503" lon="6.94046">
        <ele>129</ele>
        <time>2022-03-26T09:38:24Z</time>
      </trkpt>
      <trkpt lat="43.50298" lon="6.94046">
        <ele>130</ele>
        <time>2022-03-26T09:38:25Z</time>
      </trkpt>
      <trkpt lat="43.50297" lon="6.94047">
        <ele>130</ele>
        <time>2022-03-26T09:38:25Z</time>
      </trkpt>
      <trkpt lat="43.50292" lon="6.94048">
        <ele>131</ele>
        <time>2022-03-26T09:38:26Z</time>
      </trkpt>
      <trkpt lat="43.50287" lon="6.9405">
        <ele>132</ele>
        <time>2022-03-26T09:38:28Z</time>
      </trkpt>
      <trkpt lat="43.50282" lon="6.94052">
        <ele>134</ele>
        <time>2022-03-26T09:38:29Z</time>
      </trkpt>
      <trkpt lat="43.50266" lon="6.94063">
        <ele>138</ele>
        <time>2022-03-26T09:38:33Z</time>
      </trkpt>
      <trkpt lat="43.50255" lon="6.94073">
        <ele>142</ele>
        <time>2022-03-26T09:38:36Z</time>
      </trkpt>
      <trkpt lat="43.50243" lon="6.94086">
        <ele>145</ele>
        <time>2022-03-26T09:38:40Z</time>
      </trkpt>
      <trkpt lat="43.50228" lon="6.94099">
        <ele>147</ele>
        <time>2022-03-26T09:38:44Z</time>
      </trkpt>
      <trkpt lat="43.50219" lon="6.94104">
        <ele>148</ele>
        <time>2022-03-26T09:38:46Z</time>
      </trkpt>
      <trkpt lat="43.50177" lon="6.94109">
        <ele>150</ele>
        <time>2022-03-26T09:38:56Z</time>
      </trkpt>
      <trkpt lat="43.50169" lon="6.9411">
        <ele>150</ele>
        <time>2022-03-26T09:38:58Z</time>
      </trkpt>
      <trkpt lat="43.50136" lon="6.94113">
        <ele>150</ele>
        <time>2022-03-26T09:39:05Z</time>
      </trkpt>
      <trkpt lat="43.50127" lon="6.94113">
        <ele>150</ele>
        <time>2022-03-26T09:39:08Z</time>
      </trkpt>
      <trkpt lat="43.50123" lon="6.94115">
        <ele>151</ele>
        <time>2022-03-26T09:39:09Z</time>
      </trkpt>
      <trkpt lat="43.50121" lon="6.94116">
        <ele>151</ele>
        <time>2022-03-26T09:39:09Z</time>
      </trkpt>
      <trkpt lat="43.50119" lon="6.94117">
        <ele>151</ele>
        <time>2022-03-26T09:39:10Z</time>
      </trkpt>
      <trkpt lat="43.50119" lon="6.94119">
        <ele>152</ele>
        <time>2022-03-26T09:39:10Z</time>
      </trkpt>
      <trkpt lat="43.50119" lon="6.94122">
        <ele>152</ele>
        <time>2022-03-26T09:39:10Z</time>
      </trkpt>
      <trkpt lat="43.50119" lon="6.94122">
        <ele>152</ele>
        <time>2022-03-26T09:39:10Z</time>
      </trkpt>
      <trkpt lat="43.50119" lon="6.94125">
        <ele>153</ele>
        <time>2022-03-26T09:39:11Z</time>
      </trkpt>
      <trkpt lat="43.5012" lon="6.94127">
        <ele>154</ele>
        <time>2022-03-26T09:39:11Z</time>
      </trkpt>
      <trkpt lat="43.50124" lon="6.94132">
        <ele>155</ele>
        <time>2022-03-26T09:39:13Z</time>
      </trkpt>
      <trkpt lat="43.50128" lon="6.94135">
        <ele>156</ele>
        <time>2022-03-26T09:39:14Z</time>
      </trkpt>
      <trkpt lat="43.50137" lon="6.94143">
        <ele>158</ele>
        <time>2022-03-26T09:39:16Z</time>
      </trkpt>
      <trkpt lat="43.50147" lon="6.94154">
        <ele>160</ele>
        <time>2022-03-26T09:39:19Z</time>
      </trkpt>
      <trkpt lat="43.50153" lon="6.94162">
        <ele>162</ele>
        <time>2022-03-26T09:39:21Z</time>
      </trkpt>
      <trkpt lat="43.5017" lon="6.94175">
        <ele>164</ele>
        <time>2022-03-26T09:39:26Z</time>
      </trkpt>
      <trkpt lat="43.50189" lon="6.94185">
        <ele>163</ele>
        <time>2022-03-26T09:39:30Z</time>
      </trkpt>
      <trkpt lat="43.50208" lon="6.94203">
        <ele>163</ele>
        <time>2022-03-26T09:39:36Z</time>
      </trkpt>
      <trkpt lat="43.5023" lon="6.94242">
        <ele>162</ele>
        <time>2022-03-26T09:39:44Z</time>
      </trkpt>
      <trkpt lat="43.50257" lon="6.94285">
        <ele>161</ele>
        <time>2022-03-26T09:39:54Z</time>
      </trkpt>
      <trkpt lat="43.50263" lon="6.94305">
        <ele>161</ele>
        <time>2022-03-26T09:39:57Z</time>
      </trkpt>
      <trkpt lat="43.50263" lon="6.94305">
        <ele>161</ele>
        <time>2022-03-26T09:39:57Z</time>
      </trkpt>
      <trkpt lat="43.50271" lon="6.94336">
        <ele>161</ele>
        <time>2022-03-26T09:40:03Z</time>
      </trkpt>
      <trkpt lat="43.50289" lon="6.94403">
        <ele>162</ele>
        <time>2022-03-26T09:40:15Z</time>
      </trkpt>
      <trkpt lat="43.5029" lon="6.94418">
        <ele>163</ele>
        <time>2022-03-26T09:40:18Z</time>
      </trkpt>
      <trkpt lat="43.5029" lon="6.94426">
        <ele>163</ele>
        <time>2022-03-26T09:40:19Z</time>
      </trkpt>
      <trkpt lat="43.5029" lon="6.94426">
        <ele>163</ele>
        <time>2022-03-26T09:40:19Z</time>
      </trkpt>
      <trkpt lat="43.50287" lon="6.94427">
        <ele>164</ele>
        <time>2022-03-26T09:40:20Z</time>
      </trkpt>
      <trkpt lat="43.50286" lon="6.94431">
        <ele>164</ele>
        <time>2022-03-26T09:40:20Z</time>
      </trkpt>
      <trkpt lat="43.50284" lon="6.94436">
        <ele>165</ele>
        <time>2022-03-26T09:40:21Z</time>
      </trkpt>
      <trkpt lat="43.50283" lon="6.94446">
        <ele>165</ele>
        <time>2022-03-26T09:40:23Z</time>
      </trkpt>
      <trkpt lat="43.5028" lon="6.94471">
        <ele>167</ele>
        <time>2022-03-26T09:40:27Z</time>
      </trkpt>
      <trkpt lat="43.50276" lon="6.94492">
        <ele>168</ele>
        <time>2022-03-26T09:40:31Z</time>
      </trkpt>
      <trkpt lat="43.50275" lon="6.94499">
        <ele>169</ele>
        <time>2022-03-26T09:40:32Z</time>
      </trkpt>
      <trkpt lat="43.50272" lon="6.94505">
        <ele>169</ele>
        <time>2022-03-26T09:40:34Z</time>
      </trkpt>
      <trkpt lat="43.50266" lon="6.94511">
        <ele>170</ele>
        <time>2022-03-26T09:40:35Z</time>
      </trkpt>
      <trkpt lat="43.5026" lon="6.94513">
        <ele>171</ele>
        <time>2022-03-26T09:40:37Z</time>
      </trkpt>
      <trkpt lat="43.50253" lon="6.94513">
        <ele>173</ele>
        <time>2022-03-26T09:40:38Z</time>
      </trkpt>
      <trkpt lat="43.50217" lon="6.94513">
        <ele>179</ele>
        <time>2022-03-26T09:40:47Z</time>
      </trkpt>
      <trkpt lat="43.50213" lon="6.94513">
        <ele>180</ele>
        <time>2022-03-26T09:40:48Z</time>
      </trkpt>
      <trkpt lat="43.50203" lon="6.94516">
        <ele>181</ele>
        <time>2022-03-26T09:40:50Z</time>
      </trkpt>
      <trkpt lat="43.50203" lon="6.94516">
        <ele>181</ele>
        <time>2022-03-26T09:40:50Z</time>
      </trkpt>
      <trkpt lat="43.50198" lon="6.94518">
        <ele>182</ele>
        <time>2022-03-26T09:40:51Z</time>
      </trkpt>
      <trkpt lat="43.50197" lon="6.94518">
        <ele>182</ele>
        <time>2022-03-26T09:40:52Z</time>
      </trkpt>
      <trkpt lat="43.50189" lon="6.94523">
        <ele>183</ele>
        <time>2022-03-26T09:40:54Z</time>
      </trkpt>
      <trkpt lat="43.50179" lon="6.9453">
        <ele>184</ele>
        <time>2022-03-26T09:40:56Z</time>
      </trkpt>
      <trkpt lat="43.50164" lon="6.94546">
        <ele>187</ele>
        <time>2022-03-26T09:41:01Z</time>
      </trkpt>
      <trkpt lat="43.5016" lon="6.94553">
        <ele>187</ele>
        <time>2022-03-26T09:41:02Z</time>
      </trkpt>
      <trkpt lat="43.50155" lon="6.94562">
        <ele>188</ele>
        <time>2022-03-26T09:41:04Z</time>
      </trkpt>
      <trkpt lat="43.50155" lon="6.94562">
        <ele>188</ele>
        <time>2022-03-26T09:41:04Z</time>
      </trkpt>
      <trkpt lat="43.5015" lon="6.9456">
        <ele>190</ele>
        <time>2022-03-26T09:41:05Z</time>
      </trkpt>
      <trkpt lat="43.50146" lon="6.94562">
        <ele>191</ele>
        <time>2022-03-26T09:41:06Z</time>
      </trkpt>
      <trkpt lat="43.50141" lon="6.9457">
        <ele>192</ele>
        <time>2022-03-26T09:41:08Z</time>
      </trkpt>
      <trkpt lat="43.50139" lon="6.94582">
        <ele>192</ele>
        <time>2022-03-26T09:41:10Z</time>
      </trkpt>
      <trkpt lat="43.501" lon="6.9467">
        <ele>201</ele>
        <time>2022-03-26T09:41:28Z</time>
      </trkpt>
      <trkpt lat="43.50076" lon="6.94729">
        <ele>203</ele>
        <time>2022-03-26T09:41:39Z</time>
      </trkpt>
      <trkpt lat="43.50071" lon="6.94746">
        <ele>203</ele>
        <time>2022-03-26T09:41:42Z</time>
      </trkpt>
      <trkpt lat="43.50067" lon="6.94764">
        <ele>203</ele>
        <time>2022-03-26T09:41:45Z</time>
      </trkpt>
      <trkpt lat="43.50063" lon="6.94785">
        <ele>202</ele>
        <time>2022-03-26T09:41:49Z</time>
      </trkpt>
      <trkpt lat="43.5006" lon="6.94792">
        <ele>202</ele>
        <time>2022-03-26T09:41:50Z</time>
      </trkpt>
      <trkpt lat="43.5006" lon="6.94792">
        <ele>202</ele>
        <time>2022-03-26T09:41:50Z</time>
      </trkpt>
      <trkpt lat="43.5006" lon="6.94794">
        <ele>202</ele>
        <time>2022-03-26T09:41:51Z</time>
      </trkpt>
      <trkpt lat="43.50053" lon="6.94793">
        <ele>201</ele>
        <time>2022-03-26T09:41:52Z</time>
      </trkpt>
      <trkpt lat="43.50033" lon="6.94783">
        <ele>202</ele>
        <time>2022-03-26T09:41:57Z</time>
      </trkpt>
      <trkpt lat="43.49981" lon="6.9475">
        <ele>206</ele>
        <time>2022-03-26T09:42:11Z</time>
      </trkpt>
      <trkpt lat="43.49958" lon="6.94733">
        <ele>204</ele>
        <time>2022-03-26T09:42:17Z</time>
      </trkpt>
      <trkpt lat="43.49924" lon="6.947">
        <ele>205</ele>
        <time>2022-03-26T09:42:27Z</time>
      </trkpt>
      <trkpt lat="43.49905" lon="6.94677">
        <ele>205</ele>
        <time>2022-03-26T09:42:32Z</time>
      </trkpt>
      <trkpt lat="43.49863" lon="6.94615">
        <ele>201</ele>
        <time>2022-03-26T09:42:47Z</time>
      </trkpt>
      <trkpt lat="43.49816" lon="6.94525">
        <ele>199</ele>
        <time>2022-03-26T09:43:06Z</time>
      </trkpt>
      <trkpt lat="43.49805" lon="6.94492">
        <ele>199</ele>
        <time>2022-03-26T09:43:12Z</time>
      </trkpt>
      <trkpt lat="43.49795" lon="6.94457">
        <ele>197</ele>
        <time>2022-03-26T09:43:18Z</time>
      </trkpt>
      <trkpt lat="43.49793" lon="6.94443">
        <ele>197</ele>
        <time>2022-03-26T09:43:21Z</time>
      </trkpt>
      <trkpt lat="43.4979" lon="6.94413">
        <ele>198</ele>
        <time>2022-03-26T09:43:26Z</time>
      </trkpt>
      <trkpt lat="43.49789" lon="6.94384">
        <ele>199</ele>
        <time>2022-03-26T09:43:31Z</time>
      </trkpt>
      <trkpt lat="43.49786" lon="6.94361">
        <ele>199</ele>
        <time>2022-03-26T09:43:35Z</time>
      </trkpt>
      <trkpt lat="43.49783" lon="6.94354">
        <ele>198</ele>
        <time>2022-03-26T09:43:36Z</time>
      </trkpt>
      <trkpt lat="43.49768" lon="6.94323">
        <ele>195</ele>
        <time>2022-03-26T09:43:42Z</time>
      </trkpt>
      <trkpt lat="43.49761" lon="6.94303">
        <ele>194</ele>
        <time>2022-03-26T09:43:46Z</time>
      </trkpt>
      <trkpt lat="43.4976" lon="6.94286">
        <ele>194</ele>
        <time>2022-03-26T09:43:49Z</time>
      </trkpt>
      <trkpt lat="43.4976" lon="6.94264">
        <ele>195</ele>
        <time>2022-03-26T09:43:53Z</time>
      </trkpt>
      <trkpt lat="43.49763" lon="6.94246">
        <ele>195</ele>
        <time>2022-03-26T09:43:56Z</time>
      </trkpt>
      <trkpt lat="43.49769" lon="6.94233">
        <ele>193</ele>
        <time>2022-03-26T09:43:58Z</time>
      </trkpt>
      <trkpt lat="43.49809" lon="6.94179">
        <ele>189</ele>
        <time>2022-03-26T09:44:11Z</time>
      </trkpt>
      <trkpt lat="43.49835" lon="6.94148">
        <ele>185</ele>
        <time>2022-03-26T09:44:19Z</time>
      </trkpt>
      <trkpt lat="43.49846" lon="6.94133">
        <ele>181</ele>
        <time>2022-03-26T09:44:23Z</time>
      </trkpt>
      <trkpt lat="43.49846" lon="6.94133">
        <ele>181</ele>
        <time>2022-03-26T09:44:23Z</time>
      </trkpt>
      <trkpt lat="43.49839" lon="6.94136">
        <ele>181</ele>
        <time>2022-03-26T09:44:25Z</time>
      </trkpt>
      <trkpt lat="43.49825" lon="6.94142">
        <ele>182</ele>
        <time>2022-03-26T09:44:28Z</time>
      </trkpt>
      <trkpt lat="43.4981" lon="6.94148">
        <ele>182</ele>
        <time>2022-03-26T09:44:32Z</time>
      </trkpt>
      <trkpt lat="43.49795" lon="6.94156">
        <ele>183</ele>
        <time>2022-03-26T09:44:36Z</time>
      </trkpt>
      <trkpt lat="43.49779" lon="6.94163">
        <ele>183</ele>
        <time>2022-03-26T09:44:40Z</time>
      </trkpt>
      <trkpt lat="43.49766" lon="6.94164">
        <ele>182</ele>
        <time>2022-03-26T09:44:43Z</time>
      </trkpt>
      <trkpt lat="43.4975" lon="6.94166">
        <ele>181</ele>
        <time>2022-03-26T09:44:46Z</time>
      </trkpt>
      <trkpt lat="43.49724" lon="6.94165">
        <ele>177</ele>
        <time>2022-03-26T09:44:52Z</time>
      </trkpt>
      <trkpt lat="43.49711" lon="6.94163">
        <ele>174</ele>
        <time>2022-03-26T09:44:55Z</time>
      </trkpt>
      <trkpt lat="43.49704" lon="6.94163">
        <ele>173</ele>
        <time>2022-03-26T09:44:57Z</time>
      </trkpt>
      <trkpt lat="43.49699" lon="6.94164">
        <ele>173</ele>
        <time>2022-03-26T09:44:58Z</time>
      </trkpt>
      <trkpt lat="43.49694" lon="6.94166">
        <ele>172</ele>
        <time>2022-03-26T09:44:59Z</time>
      </trkpt>
      <trkpt lat="43.49687" lon="6.9417">
        <ele>172</ele>
        <time>2022-03-26T09:45:01Z</time>
      </trkpt>
      <trkpt lat="43.49674" lon="6.94185">
        <ele>171</ele>
        <time>2022-03-26T09:45:05Z</time>
      </trkpt>
      <trkpt lat="43.49658" lon="6.942">
        <ele>169</ele>
        <time>2022-03-26T09:45:10Z</time>
      </trkpt>
      <trkpt lat="43.49628" lon="6.94223">
        <ele>166</ele>
        <time>2022-03-26T09:45:18Z</time>
      </trkpt>
      <trkpt lat="43.49615" lon="6.94232">
        <ele>164</ele>
        <time>2022-03-26T09:45:21Z</time>
      </trkpt>
      <trkpt lat="43.49615" lon="6.94232">
        <ele>164</ele>
        <time>2022-03-26T09:45:21Z</time>
      </trkpt>
      <trkpt lat="43.49609" lon="6.94233">
        <ele>163</ele>
        <time>2022-03-26T09:45:23Z</time>
      </trkpt>
      <trkpt lat="43.49595" lon="6.94232">
        <ele>161</ele>
        <time>2022-03-26T09:45:26Z</time>
      </trkpt>
      <trkpt lat="43.49569" lon="6.94227">
        <ele>157</ele>
        <time>2022-03-26T09:45:32Z</time>
      </trkpt>
      <trkpt lat="43.49562" lon="6.94224">
        <ele>156</ele>
        <time>2022-03-26T09:45:34Z</time>
      </trkpt>
      <trkpt lat="43.49556" lon="6.94219">
        <ele>155</ele>
        <time>2022-03-26T09:45:35Z</time>
      </trkpt>
      <trkpt lat="43.49551" lon="6.94218">
        <ele>155</ele>
        <time>2022-03-26T09:45:36Z</time>
      </trkpt>
      <trkpt lat="43.49547" lon="6.94218">
        <ele>155</ele>
        <time>2022-03-26T09:45:37Z</time>
      </trkpt>
      <trkpt lat="43.49543" lon="6.94222">
        <ele>155</ele>
        <time>2022-03-26T09:45:39Z</time>
      </trkpt>
      <trkpt lat="43.4954" lon="6.94227">
        <ele>156</ele>
        <time>2022-03-26T09:45:40Z</time>
      </trkpt>
      <trkpt lat="43.49538" lon="6.94232">
        <ele>156</ele>
        <time>2022-03-26T09:45:41Z</time>
      </trkpt>
      <trkpt lat="43.49537" lon="6.94242">
        <ele>158</ele>
        <time>2022-03-26T09:45:42Z</time>
      </trkpt>
      <trkpt lat="43.49537" lon="6.94242">
        <ele>158</ele>
        <time>2022-03-26T09:45:42Z</time>
      </trkpt>
      <trkpt lat="43.49524" lon="6.94244">
        <ele>157</ele>
        <time>2022-03-26T09:45:45Z</time>
      </trkpt>
      <trkpt lat="43.49519" lon="6.94245">
        <ele>157</ele>
        <time>2022-03-26T09:45:47Z</time>
      </trkpt>
      <trkpt lat="43.49514" lon="6.94247">
        <ele>157</ele>
        <time>2022-03-26T09:45:48Z</time>
      </trkpt>
      <trkpt lat="43.49506" lon="6.94249">
        <ele>157</ele>
        <time>2022-03-26T09:45:50Z</time>
      </trkpt>
      <trkpt lat="43.495" lon="6.9425">
        <ele>157</ele>
        <time>2022-03-26T09:45:51Z</time>
      </trkpt>
      <trkpt lat="43.49489" lon="6.9425">
        <ele>157</ele>
        <time>2022-03-26T09:45:54Z</time>
      </trkpt>
      <trkpt lat="43.49478" lon="6.9425">
        <ele>157</ele>
        <time>2022-03-26T09:45:56Z</time>
      </trkpt>
      <trkpt lat="43.49471" lon="6.9425">
        <ele>157</ele>
        <time>2022-03-26T09:45:58Z</time>
      </trkpt>
      <trkpt lat="43.49455" lon="6.94251">
        <ele>156</ele>
        <time>2022-03-26T09:46:02Z</time>
      </trkpt>
      <trkpt lat="43.49433" lon="6.94252">
        <ele>156</ele>
        <time>2022-03-26T09:46:07Z</time>
      </trkpt>
      <trkpt lat="43.49391" lon="6.94251">
        <ele>156</ele>
        <time>2022-03-26T09:46:17Z</time>
      </trkpt>
      <trkpt lat="43.49366" lon="6.94253">
        <ele>157</ele>
        <time>2022-03-26T09:46:22Z</time>
      </trkpt>
      <trkpt lat="43.49361" lon="6.94253">
        <ele>157</ele>
        <time>2022-03-26T09:46:24Z</time>
      </trkpt>
      <trkpt lat="43.49358" lon="6.94253">
        <ele>157</ele>
        <time>2022-03-26T09:46:24Z</time>
      </trkpt>
      <trkpt lat="43.49354" lon="6.94251">
        <ele>157</ele>
        <time>2022-03-26T09:46:25Z</time>
      </trkpt>
      <trkpt lat="43.49351" lon="6.94248">
        <ele>158</ele>
        <time>2022-03-26T09:46:26Z</time>
      </trkpt>
      <trkpt lat="43.49349" lon="6.94247">
        <ele>158</ele>
        <time>2022-03-26T09:46:27Z</time>
      </trkpt>
      <trkpt lat="43.49345" lon="6.94238">
        <ele>159</ele>
        <time>2022-03-26T09:46:28Z</time>
      </trkpt>
      <trkpt lat="43.49345" lon="6.94238">
        <ele>159</ele>
        <time>2022-03-26T09:46:28Z</time>
      </trkpt>
      <trkpt lat="43.49345" lon="6.94179">
        <ele>165</ele>
        <time>2022-03-26T09:46:38Z</time>
      </trkpt>
      <trkpt lat="43.49342" lon="6.94164">
        <ele>167</ele>
        <time>2022-03-26T09:46:41Z</time>
      </trkpt>
      <trkpt lat="43.49338" lon="6.94123">
        <ele>170</ele>
        <time>2022-03-26T09:46:48Z</time>
      </trkpt>
      <trkpt lat="43.49333" lon="6.94052">
        <ele>174</ele>
        <time>2022-03-26T09:47:00Z</time>
      </trkpt>
      <trkpt lat="43.49332" lon="6.9402">
        <ele>175</ele>
        <time>2022-03-26T09:47:06Z</time>
      </trkpt>
      <trkpt lat="43.49314" lon="6.93918">
        <ele>175</ele>
        <time>2022-03-26T09:47:23Z</time>
      </trkpt>
      <trkpt lat="43.49301" lon="6.93864">
        <ele>174</ele>
        <time>2022-03-26T09:47:33Z</time>
      </trkpt>
      <trkpt lat="43.493" lon="6.93859">
        <ele>173</ele>
        <time>2022-03-26T09:47:34Z</time>
      </trkpt>
      <trkpt lat="43.493" lon="6.93846">
        <ele>173</ele>
        <time>2022-03-26T09:47:36Z</time>
      </trkpt>
      <trkpt lat="43.49307" lon="6.93797">
        <ele>173</ele>
        <time>2022-03-26T09:47:45Z</time>
      </trkpt>
      <trkpt lat="43.49309" lon="6.93776">
        <ele>173</ele>
        <time>2022-03-26T09:47:48Z</time>
      </trkpt>
      <trkpt lat="43.49308" lon="6.93746">
        <ele>172</ele>
        <time>2022-03-26T09:47:53Z</time>
      </trkpt>
      <trkpt lat="43.49308" lon="6.93736">
        <ele>172</ele>
        <time>2022-03-26T09:47:55Z</time>
      </trkpt>
      <trkpt lat="43.49317" lon="6.93698">
        <ele>173</ele>
        <time>2022-03-26T09:48:02Z</time>
      </trkpt>
      <trkpt lat="43.49322" lon="6.93659">
        <ele>173</ele>
        <time>2022-03-26T09:48:08Z</time>
      </trkpt>
      <trkpt lat="43.49326" lon="6.93639">
        <ele>174</ele>
        <time>2022-03-26T09:48:12Z</time>
      </trkpt>
      <trkpt lat="43.49347" lon="6.93576">
        <ele>171</ele>
        <time>2022-03-26T09:48:24Z</time>
      </trkpt>
      <trkpt lat="43.49348" lon="6.93559">
        <ele>172</ele>
        <time>2022-03-26T09:48:27Z</time>
      </trkpt>
      <trkpt lat="43.49344" lon="6.93538">
        <ele>174</ele>
        <time>2022-03-26T09:48:30Z</time>
      </trkpt>
      <trkpt lat="43.49335" lon="6.93503">
        <ele>178</ele>
        <time>2022-03-26T09:48:37Z</time>
      </trkpt>
      <trkpt lat="43.49334" lon="6.9349">
        <ele>178</ele>
        <time>2022-03-26T09:48:39Z</time>
      </trkpt>
      <trkpt lat="43.49334" lon="6.93471">
        <ele>179</ele>
        <time>2022-03-26T09:48:42Z</time>
      </trkpt>
      <trkpt lat="43.4934" lon="6.93445">
        <ele>178</ele>
        <time>2022-03-26T09:48:47Z</time>
      </trkpt>
      <trkpt lat="43.49344" lon="6.93413">
        <ele>178</ele>
        <time>2022-03-26T09:48:52Z</time>
      </trkpt>
      <trkpt lat="43.49345" lon="6.93405">
        <ele>177</ele>
        <time>2022-03-26T09:48:53Z</time>
      </trkpt>
      <trkpt lat="43.49351" lon="6.93379">
        <ele>175</ele>
        <time>2022-03-26T09:48:58Z</time>
      </trkpt>
      <trkpt lat="43.49351" lon="6.93368">
        <ele>174</ele>
        <time>2022-03-26T09:49:00Z</time>
      </trkpt>
      <trkpt lat="43.49348" lon="6.9336">
        <ele>174</ele>
        <time>2022-03-26T09:49:01Z</time>
      </trkpt>
      <trkpt lat="43.49339" lon="6.9335">
        <ele>174</ele>
        <time>2022-03-26T09:49:04Z</time>
      </trkpt>
      <trkpt lat="43.49337" lon="6.93343">
        <ele>174</ele>
        <time>2022-03-26T09:49:05Z</time>
      </trkpt>
      <trkpt lat="43.49336" lon="6.93335">
        <ele>174</ele>
        <time>2022-03-26T09:49:07Z</time>
      </trkpt>
      <trkpt lat="43.49337" lon="6.93325">
        <ele>172</ele>
        <time>2022-03-26T09:49:09Z</time>
      </trkpt>
      <trkpt lat="43.49344" lon="6.93311">
        <ele>170</ele>
        <time>2022-03-26T09:49:11Z</time>
      </trkpt>
      <trkpt lat="43.49351" lon="6.93307">
        <ele>169</ele>
        <time>2022-03-26T09:49:13Z</time>
      </trkpt>
      <trkpt lat="43.49362" lon="6.93305">
        <ele>168</ele>
        <time>2022-03-26T09:49:16Z</time>
      </trkpt>
      <trkpt lat="43.49371" lon="6.93306">
        <ele>167</ele>
        <time>2022-03-26T09:49:18Z</time>
      </trkpt>
      <trkpt lat="43.49378" lon="6.93308">
        <ele>167</ele>
        <time>2022-03-26T09:49:20Z</time>
      </trkpt>
      <trkpt lat="43.49385" lon="6.93316">
        <ele>167</ele>
        <time>2022-03-26T09:49:22Z</time>
      </trkpt>
      <trkpt lat="43.49393" lon="6.93327">
        <ele>167</ele>
        <time>2022-03-26T09:49:24Z</time>
      </trkpt>
      <trkpt lat="43.49395" lon="6.93327">
        <ele>166</ele>
        <time>2022-03-26T09:49:25Z</time>
      </trkpt>
      <trkpt lat="43.49397" lon="6.93326">
        <ele>166</ele>
        <time>2022-03-26T09:49:25Z</time>
      </trkpt>
      <trkpt lat="43.49399" lon="6.93317">
        <ele>166</ele>
        <time>2022-03-26T09:49:27Z</time>
      </trkpt>
      <trkpt lat="43.49399" lon="6.93304">
        <ele>165</ele>
        <time>2022-03-26T09:49:29Z</time>
      </trkpt>
      <trkpt lat="43.49397" lon="6.93272">
        <ele>164</ele>
        <time>2022-03-26T09:49:35Z</time>
      </trkpt>
      <trkpt lat="43.494" lon="6.93242">
        <ele>163</ele>
        <time>2022-03-26T09:49:40Z</time>
      </trkpt>
      <trkpt lat="43.4941" lon="6.9322">
        <ele>163</ele>
        <time>2022-03-26T09:49:44Z</time>
      </trkpt>
      <trkpt lat="43.49431" lon="6.93187">
        <ele>160</ele>
        <time>2022-03-26T09:49:51Z</time>
      </trkpt>
      <trkpt lat="43.49437" lon="6.93174">
        <ele>159</ele>
        <time>2022-03-26T09:49:54Z</time>
      </trkpt>
      <trkpt lat="43.49441" lon="6.93157">
        <ele>158</ele>
        <time>2022-03-26T09:49:57Z</time>
      </trkpt>
      <trkpt lat="43.49441" lon="6.93122">
        <ele>156</ele>
        <time>2022-03-26T09:50:03Z</time>
      </trkpt>
      <trkpt lat="43.4944" lon="6.93116">
        <ele>156</ele>
        <time>2022-03-26T09:50:04Z</time>
      </trkpt>
      <trkpt lat="43.49436" lon="6.93114">
        <ele>156</ele>
        <time>2022-03-26T09:50:05Z</time>
      </trkpt>
      <trkpt lat="43.49434" lon="6.93112">
        <ele>157</ele>
        <time>2022-03-26T09:50:06Z</time>
      </trkpt>
      <trkpt lat="43.49416" lon="6.9312">
        <ele>160</ele>
        <time>2022-03-26T09:50:10Z</time>
      </trkpt>
      <trkpt lat="43.49391" lon="6.93135">
        <ele>155</ele>
        <time>2022-03-26T09:50:16Z</time>
      </trkpt>
      <trkpt lat="43.49377" lon="6.93148">
        <ele>153</ele>
        <time>2022-03-26T09:50:20Z</time>
      </trkpt>
      <trkpt lat="43.49371" lon="6.93159">
        <ele>154</ele>
        <time>2022-03-26T09:50:23Z</time>
      </trkpt>
      <trkpt lat="43.49369" lon="6.93167">
        <ele>154</ele>
        <time>2022-03-26T09:50:24Z</time>
      </trkpt>
      <trkpt lat="43.49369" lon="6.9318">
        <ele>156</ele>
        <time>2022-03-26T09:50:26Z</time>
      </trkpt>
      <trkpt lat="43.49372" lon="6.93192">
        <ele>157</ele>
        <time>2022-03-26T09:50:29Z</time>
      </trkpt>
      <trkpt lat="43.49373" lon="6.93195">
        <ele>158</ele>
        <time>2022-03-26T09:50:29Z</time>
      </trkpt>
      <trkpt lat="43.49373" lon="6.93198">
        <ele>158</ele>
        <time>2022-03-26T09:50:30Z</time>
      </trkpt>
      <trkpt lat="43.49372" lon="6.93199">
        <ele>158</ele>
        <time>2022-03-26T09:50:30Z</time>
      </trkpt>
      <trkpt lat="43.49372" lon="6.93201">
        <ele>158</ele>
        <time>2022-03-26T09:50:30Z</time>
      </trkpt>
      <trkpt lat="43.49371" lon="6.93202">
        <ele>158</ele>
        <time>2022-03-26T09:50:30Z</time>
      </trkpt>
      <trkpt lat="43.49369" lon="6.93202">
        <ele>158</ele>
        <time>2022-03-26T09:50:31Z</time>
      </trkpt>
      <trkpt lat="43.49368" lon="6.93202">
        <ele>158</ele>
        <time>2022-03-26T09:50:31Z</time>
      </trkpt>
      <trkpt lat="43.49367" lon="6.93202">
        <ele>157</ele>
        <time>2022-03-26T09:50:31Z</time>
      </trkpt>
      <trkpt lat="43.49366" lon="6.932">
        <ele>157</ele>
        <time>2022-03-26T09:50:32Z</time>
      </trkpt>
      <trkpt lat="43.49362" lon="6.93192">
        <ele>156</ele>
        <time>2022-03-26T09:50:33Z</time>
      </trkpt>
      <trkpt lat="43.49354" lon="6.93168">
        <ele>151</ele>
        <time>2022-03-26T09:50:38Z</time>
      </trkpt>
      <trkpt lat="43.49354" lon="6.93152">
        <ele>149</ele>
        <time>2022-03-26T09:50:41Z</time>
      </trkpt>
      <trkpt lat="43.49358" lon="6.93133">
        <ele>147</ele>
        <time>2022-03-26T09:50:44Z</time>
      </trkpt>
      <trkpt lat="43.49363" lon="6.9312">
        <ele>146</ele>
        <time>2022-03-26T09:50:47Z</time>
      </trkpt>
      <trkpt lat="43.49373" lon="6.931">
        <ele>146</ele>
        <time>2022-03-26T09:50:51Z</time>
      </trkpt>
      <trkpt lat="43.49379" lon="6.93093">
        <ele>147</ele>
        <time>2022-03-26T09:50:52Z</time>
      </trkpt>
      <trkpt lat="43.49397" lon="6.93056">
        <ele>147</ele>
        <time>2022-03-26T09:51:00Z</time>
      </trkpt>
      <trkpt lat="43.49401" lon="6.93041">
        <ele>146</ele>
        <time>2022-03-26T09:51:03Z</time>
      </trkpt>
      <trkpt lat="43.49404" lon="6.93024">
        <ele>144</ele>
        <time>2022-03-26T09:51:06Z</time>
      </trkpt>
      <trkpt lat="43.49405" lon="6.93013">
        <ele>143</ele>
        <time>2022-03-26T09:51:08Z</time>
      </trkpt>
      <trkpt lat="43.49401" lon="6.92986">
        <ele>138</ele>
        <time>2022-03-26T09:51:12Z</time>
      </trkpt>
      <trkpt lat="43.49402" lon="6.92977">
        <ele>137</ele>
        <time>2022-03-26T09:51:14Z</time>
      </trkpt>
      <trkpt lat="43.49403" lon="6.92967">
        <ele>136</ele>
        <time>2022-03-26T09:51:15Z</time>
      </trkpt>
      <trkpt lat="43.49409" lon="6.92954">
        <ele>136</ele>
        <time>2022-03-26T09:51:18Z</time>
      </trkpt>
      <trkpt lat="43.4941" lon="6.92943">
        <ele>135</ele>
        <time>2022-03-26T09:51:20Z</time>
      </trkpt>
      <trkpt lat="43.49411" lon="6.92937">
        <ele>135</ele>
        <time>2022-03-26T09:51:21Z</time>
      </trkpt>
      <trkpt lat="43.49399" lon="6.92891">
        <ele>124</ele>
        <time>2022-03-26T09:51:29Z</time>
      </trkpt>
      <trkpt lat="43.49399" lon="6.92885">
        <ele>123</ele>
        <time>2022-03-26T09:51:30Z</time>
      </trkpt>
      <trkpt lat="43.49401" lon="6.92871">
        <ele>122</ele>
        <time>2022-03-26T09:51:33Z</time>
      </trkpt>
      <trkpt lat="43.49407" lon="6.92861">
        <ele>122</ele>
        <time>2022-03-26T09:51:35Z</time>
      </trkpt>
      <trkpt lat="43.49415" lon="6.92848">
        <ele>123</ele>
        <time>2022-03-26T09:51:38Z</time>
      </trkpt>
      <trkpt lat="43.49426" lon="6.92842">
        <ele>123</ele>
        <time>2022-03-26T09:51:41Z</time>
      </trkpt>
      <trkpt lat="43.4944" lon="6.92842">
        <ele>123</ele>
        <time>2022-03-26T09:51:44Z</time>
      </trkpt>
      <trkpt lat="43.49444" lon="6.92844">
        <ele>123</ele>
        <time>2022-03-26T09:51:45Z</time>
      </trkpt>
      <trkpt lat="43.49451" lon="6.92845">
        <ele>124</ele>
        <time>2022-03-26T09:51:46Z</time>
      </trkpt>
      <trkpt lat="43.49454" lon="6.92843">
        <ele>123</ele>
        <time>2022-03-26T09:51:47Z</time>
      </trkpt>
      <trkpt lat="43.49479" lon="6.92799">
        <ele>120</ele>
        <time>2022-03-26T09:51:57Z</time>
      </trkpt>
      <trkpt lat="43.49486" lon="6.92784">
        <ele>120</ele>
        <time>2022-03-26T09:52:00Z</time>
      </trkpt>
      <trkpt lat="43.49491" lon="6.92776">
        <ele>120</ele>
        <time>2022-03-26T09:52:02Z</time>
      </trkpt>
      <trkpt lat="43.49491" lon="6.92776">
        <ele>120</ele>
        <time>2022-03-26T09:52:02Z</time>
      </trkpt>
      <trkpt lat="43.4949" lon="6.92769">
        <ele>119</ele>
        <time>2022-03-26T09:52:03Z</time>
      </trkpt>
      <trkpt lat="43.49478" lon="6.92758">
        <ele>117</ele>
        <time>2022-03-26T09:52:06Z</time>
      </trkpt>
      <trkpt lat="43.49474" lon="6.92752">
        <ele>116</ele>
        <time>2022-03-26T09:52:08Z</time>
      </trkpt>
      <trkpt lat="43.49462" lon="6.92729">
        <ele>115</ele>
        <time>2022-03-26T09:52:12Z</time>
      </trkpt>
      <trkpt lat="43.49456" lon="6.92716">
        <ele>115</ele>
        <time>2022-03-26T09:52:15Z</time>
      </trkpt>
      <trkpt lat="43.4945" lon="6.92695">
        <ele>115</ele>
        <time>2022-03-26T09:52:19Z</time>
      </trkpt>
      <trkpt lat="43.49448" lon="6.92688">
        <ele>115</ele>
        <time>2022-03-26T09:52:20Z</time>
      </trkpt>
      <trkpt lat="43.49448" lon="6.92677">
        <ele>116</ele>
        <time>2022-03-26T09:52:22Z</time>
      </trkpt>
      <trkpt lat="43.4945" lon="6.92656">
        <ele>118</ele>
        <time>2022-03-26T09:52:25Z</time>
      </trkpt>
      <trkpt lat="43.4945" lon="6.92653">
        <ele>119</ele>
        <time>2022-03-26T09:52:26Z</time>
      </trkpt>
      <trkpt lat="43.49448" lon="6.92644">
        <ele>120</ele>
        <time>2022-03-26T09:52:28Z</time>
      </trkpt>
      <trkpt lat="43.49442" lon="6.92627">
        <ele>122</ele>
        <time>2022-03-26T09:52:31Z</time>
      </trkpt>
      <trkpt lat="43.4944" lon="6.92616">
        <ele>123</ele>
        <time>2022-03-26T09:52:33Z</time>
      </trkpt>
      <trkpt lat="43.49438" lon="6.92611">
        <ele>123</ele>
        <time>2022-03-26T09:52:34Z</time>
      </trkpt>
      <trkpt lat="43.49433" lon="6.92606">
        <ele>123</ele>
        <time>2022-03-26T09:52:35Z</time>
      </trkpt>
      <trkpt lat="43.49426" lon="6.92603">
        <ele>122</ele>
        <time>2022-03-26T09:52:37Z</time>
      </trkpt>
      <trkpt lat="43.49422" lon="6.92602">
        <ele>121</ele>
        <time>2022-03-26T09:52:38Z</time>
      </trkpt>
      <trkpt lat="43.49418" lon="6.92598">
        <ele>121</ele>
        <time>2022-03-26T09:52:39Z</time>
      </trkpt>
      <trkpt lat="43.4941" lon="6.92587">
        <ele>123</ele>
        <time>2022-03-26T09:52:42Z</time>
      </trkpt>
      <trkpt lat="43.49404" lon="6.92573">
        <ele>127</ele>
        <time>2022-03-26T09:52:44Z</time>
      </trkpt>
      <trkpt lat="43.49401" lon="6.92569">
        <ele>129</ele>
        <time>2022-03-26T09:52:45Z</time>
      </trkpt>
      <trkpt lat="43.49398" lon="6.92568">
        <ele>130</ele>
        <time>2022-03-26T09:52:46Z</time>
      </trkpt>
      <trkpt lat="43.49394" lon="6.9257">
        <ele>130</ele>
        <time>2022-03-26T09:52:47Z</time>
      </trkpt>
      <trkpt lat="43.49392" lon="6.92573">
        <ele>129</ele>
        <time>2022-03-26T09:52:48Z</time>
      </trkpt>
      <trkpt lat="43.49382" lon="6.92615">
        <ele>120</ele>
        <time>2022-03-26T09:52:55Z</time>
      </trkpt>
      <trkpt lat="43.49374" lon="6.92629">
        <ele>118</ele>
        <time>2022-03-26T09:52:58Z</time>
      </trkpt>
      <trkpt lat="43.49371" lon="6.92634">
        <ele>117</ele>
        <time>2022-03-26T09:52:59Z</time>
      </trkpt>
      <trkpt lat="43.49367" lon="6.92644">
        <ele>114</ele>
        <time>2022-03-26T09:53:01Z</time>
      </trkpt>
      <trkpt lat="43.49361" lon="6.92651">
        <ele>112</ele>
        <time>2022-03-26T09:53:03Z</time>
      </trkpt>
      <trkpt lat="43.49351" lon="6.92663">
        <ele>109</ele>
        <time>2022-03-26T09:53:06Z</time>
      </trkpt>
      <trkpt lat="43.49347" lon="6.92671">
        <ele>107</ele>
        <time>2022-03-26T09:53:08Z</time>
      </trkpt>
      <trkpt lat="43.49343" lon="6.92678">
        <ele>106</ele>
        <time>2022-03-26T09:53:09Z</time>
      </trkpt>
      <trkpt lat="43.49336" lon="6.92683">
        <ele>105</ele>
        <time>2022-03-26T09:53:11Z</time>
      </trkpt>
      <trkpt lat="43.49334" lon="6.92684">
        <ele>104</ele>
        <time>2022-03-26T09:53:12Z</time>
      </trkpt>
      <trkpt lat="43.49325" lon="6.92686">
        <ele>105</ele>
        <time>2022-03-26T09:53:14Z</time>
      </trkpt>
      <trkpt lat="43.49312" lon="6.92684">
        <ele>107</ele>
        <time>2022-03-26T09:53:17Z</time>
      </trkpt>
      <trkpt lat="43.49311" lon="6.92684">
        <ele>107</ele>
        <time>2022-03-26T09:53:17Z</time>
      </trkpt>
      <trkpt lat="43.49308" lon="6.92687">
        <ele>106</ele>
        <time>2022-03-26T09:53:18Z</time>
      </trkpt>
      <trkpt lat="43.49296" lon="6.92702">
        <ele>104</ele>
        <time>2022-03-26T09:53:22Z</time>
      </trkpt>
      <trkpt lat="43.49288" lon="6.9271">
        <ele>103</ele>
        <time>2022-03-26T09:53:24Z</time>
      </trkpt>
      <trkpt lat="43.49275" lon="6.92731">
        <ele>99</ele>
        <time>2022-03-26T09:53:29Z</time>
      </trkpt>
      <trkpt lat="43.49271" lon="6.92741">
        <ele>97</ele>
        <time>2022-03-26T09:53:31Z</time>
      </trkpt>
      <trkpt lat="43.49266" lon="6.92757">
        <ele>94</ele>
        <time>2022-03-26T09:53:34Z</time>
      </trkpt>
      <trkpt lat="43.49261" lon="6.92762">
        <ele>94</ele>
        <time>2022-03-26T09:53:35Z</time>
      </trkpt>
      <trkpt lat="43.49257" lon="6.92763">
        <ele>94</ele>
        <time>2022-03-26T09:53:36Z</time>
      </trkpt>
      <trkpt lat="43.49247" lon="6.92761">
        <ele>95</ele>
        <time>2022-03-26T09:53:38Z</time>
      </trkpt>
      <trkpt lat="43.49242" lon="6.92761">
        <ele>95</ele>
        <time>2022-03-26T09:53:40Z</time>
      </trkpt>
      <trkpt lat="43.49238" lon="6.92762">
        <ele>95</ele>
        <time>2022-03-26T09:53:40Z</time>
      </trkpt>
      <trkpt lat="43.49234" lon="6.92765">
        <ele>95</ele>
        <time>2022-03-26T09:53:42Z</time>
      </trkpt>
      <trkpt lat="43.4923" lon="6.92769">
        <ele>94</ele>
        <time>2022-03-26T09:53:43Z</time>
      </trkpt>
      <trkpt lat="43.49223" lon="6.92776">
        <ele>93</ele>
        <time>2022-03-26T09:53:45Z</time>
      </trkpt>
      <trkpt lat="43.49219" lon="6.92784">
        <ele>91</ele>
        <time>2022-03-26T09:53:46Z</time>
      </trkpt>
      <trkpt lat="43.49214" lon="6.9279">
        <ele>90</ele>
        <time>2022-03-26T09:53:48Z</time>
      </trkpt>
      <trkpt lat="43.49202" lon="6.92797">
        <ele>89</ele>
        <time>2022-03-26T09:53:51Z</time>
      </trkpt>
      <trkpt lat="43.49195" lon="6.928">
        <ele>89</ele>
        <time>2022-03-26T09:53:53Z</time>
      </trkpt>
      <trkpt lat="43.49185" lon="6.928">
        <ele>89</ele>
        <time>2022-03-26T09:53:55Z</time>
      </trkpt>
      <trkpt lat="43.4918" lon="6.92803">
        <ele>89</ele>
        <time>2022-03-26T09:53:56Z</time>
      </trkpt>
      <trkpt lat="43.49178" lon="6.92806">
        <ele>88</ele>
        <time>2022-03-26T09:53:57Z</time>
      </trkpt>
      <trkpt lat="43.4917" lon="6.92826">
        <ele>83</ele>
        <time>2022-03-26T09:54:01Z</time>
      </trkpt>
      <trkpt lat="43.49166" lon="6.92834">
        <ele>81</ele>
        <time>2022-03-26T09:54:02Z</time>
      </trkpt>
      <trkpt lat="43.49157" lon="6.92847">
        <ele>78</ele>
        <time>2022-03-26T09:54:06Z</time>
      </trkpt>
      <trkpt lat="43.49153" lon="6.92851">
        <ele>77</ele>
        <time>2022-03-26T09:54:07Z</time>
      </trkpt>
      <trkpt lat="43.4915" lon="6.92851">
        <ele>77</ele>
        <time>2022-03-26T09:54:07Z</time>
      </trkpt>
      <trkpt lat="43.49146" lon="6.9285">
        <ele>77</ele>
        <time>2022-03-26T09:54:08Z</time>
      </trkpt>
      <trkpt lat="43.49142" lon="6.92846">
        <ele>78</ele>
        <time>2022-03-26T09:54:09Z</time>
      </trkpt>
      <trkpt lat="43.49122" lon="6.92825">
        <ele>83</ele>
        <time>2022-03-26T09:54:15Z</time>
      </trkpt>
      <trkpt lat="43.49114" lon="6.92813">
        <ele>86</ele>
        <time>2022-03-26T09:54:18Z</time>
      </trkpt>
      <trkpt lat="43.49113" lon="6.92812">
        <ele>87</ele>
        <time>2022-03-26T09:54:18Z</time>
      </trkpt>
      <trkpt lat="43.49108" lon="6.9281">
        <ele>87</ele>
        <time>2022-03-26T09:54:20Z</time>
      </trkpt>
      <trkpt lat="43.49103" lon="6.92809">
        <ele>87</ele>
        <time>2022-03-26T09:54:21Z</time>
      </trkpt>
      <trkpt lat="43.49088" lon="6.92807">
        <ele>88</ele>
        <time>2022-03-26T09:54:24Z</time>
      </trkpt>
      <trkpt lat="43.49084" lon="6.92808">
        <ele>88</ele>
        <time>2022-03-26T09:54:25Z</time>
      </trkpt>
      <trkpt lat="43.49081" lon="6.9281">
        <ele>87</ele>
        <time>2022-03-26T09:54:26Z</time>
      </trkpt>
      <trkpt lat="43.49079" lon="6.92814">
        <ele>86</ele>
        <time>2022-03-26T09:54:27Z</time>
      </trkpt>
      <trkpt lat="43.49071" lon="6.92838">
        <ele>80</ele>
        <time>2022-03-26T09:54:31Z</time>
      </trkpt>
      <trkpt lat="43.49065" lon="6.92851">
        <ele>78</ele>
        <time>2022-03-26T09:54:34Z</time>
      </trkpt>
      <trkpt lat="43.49062" lon="6.92856">
        <ele>77</ele>
        <time>2022-03-26T09:54:35Z</time>
      </trkpt>
      <trkpt lat="43.49058" lon="6.9286">
        <ele>76</ele>
        <time>2022-03-26T09:54:36Z</time>
      </trkpt>
      <trkpt lat="43.49054" lon="6.92861">
        <ele>77</ele>
        <time>2022-03-26T09:54:37Z</time>
      </trkpt>
      <trkpt lat="43.49049" lon="6.92862">
        <ele>77</ele>
        <time>2022-03-26T09:54:38Z</time>
      </trkpt>
      <trkpt lat="43.49043" lon="6.92862">
        <ele>78</ele>
        <time>2022-03-26T09:54:40Z</time>
      </trkpt>
      <trkpt lat="43.49039" lon="6.9286">
        <ele>79</ele>
        <time>2022-03-26T09:54:41Z</time>
      </trkpt>
      <trkpt lat="43.4903" lon="6.92851">
        <ele>82</ele>
        <time>2022-03-26T09:54:43Z</time>
      </trkpt>
      <trkpt lat="43.49023" lon="6.92847">
        <ele>84</ele>
        <time>2022-03-26T09:54:45Z</time>
      </trkpt>
      <trkpt lat="43.49017" lon="6.92846">
        <ele>85</ele>
        <time>2022-03-26T09:54:46Z</time>
      </trkpt>
      <trkpt lat="43.49012" lon="6.92848">
        <ele>85</ele>
        <time>2022-03-26T09:54:48Z</time>
      </trkpt>
      <trkpt lat="43.49011" lon="6.9285">
        <ele>85</ele>
        <time>2022-03-26T09:54:48Z</time>
      </trkpt>
      <trkpt lat="43.49009" lon="6.92855">
        <ele>84</ele>
        <time>2022-03-26T09:54:49Z</time>
      </trkpt>
      <trkpt lat="43.49002" lon="6.92882">
        <ele>77</ele>
        <time>2022-03-26T09:54:54Z</time>
      </trkpt>
      <trkpt lat="43.48999" lon="6.92891">
        <ele>75</ele>
        <time>2022-03-26T09:54:56Z</time>
      </trkpt>
      <trkpt lat="43.48992" lon="6.92907">
        <ele>73</ele>
        <time>2022-03-26T09:54:59Z</time>
      </trkpt>
      <trkpt lat="43.48987" lon="6.92915">
        <ele>72</ele>
        <time>2022-03-26T09:55:01Z</time>
      </trkpt>
      <trkpt lat="43.48975" lon="6.92928">
        <ele>71</ele>
        <time>2022-03-26T09:55:04Z</time>
      </trkpt>
      <trkpt lat="43.48969" lon="6.92931">
        <ele>72</ele>
        <time>2022-03-26T09:55:06Z</time>
      </trkpt>
      <trkpt lat="43.48958" lon="6.92934">
        <ele>74</ele>
        <time>2022-03-26T09:55:08Z</time>
      </trkpt>
      <trkpt lat="43.48948" lon="6.92934">
        <ele>76</ele>
        <time>2022-03-26T09:55:11Z</time>
      </trkpt>
      <trkpt lat="43.48944" lon="6.92935">
        <ele>77</ele>
        <time>2022-03-26T09:55:12Z</time>
      </trkpt>
      <trkpt lat="43.4894" lon="6.92938">
        <ele>77</ele>
        <time>2022-03-26T09:55:13Z</time>
      </trkpt>
      <trkpt lat="43.48933" lon="6.92946">
        <ele>76</ele>
        <time>2022-03-26T09:55:15Z</time>
      </trkpt>
      <trkpt lat="43.48924" lon="6.92953">
        <ele>75</ele>
        <time>2022-03-26T09:55:17Z</time>
      </trkpt>
      <trkpt lat="43.48923" lon="6.92957">
        <ele>74</ele>
        <time>2022-03-26T09:55:18Z</time>
      </trkpt>
      <trkpt lat="43.48922" lon="6.9296">
        <ele>73</ele>
        <time>2022-03-26T09:55:18Z</time>
      </trkpt>
      <trkpt lat="43.48921" lon="6.92979">
        <ele>67</ele>
        <time>2022-03-26T09:55:22Z</time>
      </trkpt>
      <trkpt lat="43.4892" lon="6.92985">
        <ele>65</ele>
        <time>2022-03-26T09:55:23Z</time>
      </trkpt>
      <trkpt lat="43.48917" lon="6.9299">
        <ele>64</ele>
        <time>2022-03-26T09:55:24Z</time>
      </trkpt>
      <trkpt lat="43.48904" lon="6.93009">
        <ele>60</ele>
        <time>2022-03-26T09:55:28Z</time>
      </trkpt>
      <trkpt lat="43.48888" lon="6.93026">
        <ele>58</ele>
        <time>2022-03-26T09:55:33Z</time>
      </trkpt>
      <trkpt lat="43.48875" lon="6.93036">
        <ele>56</ele>
        <time>2022-03-26T09:55:36Z</time>
      </trkpt>
      <trkpt lat="43.48867" lon="6.9304">
        <ele>56</ele>
        <time>2022-03-26T09:55:38Z</time>
      </trkpt>
      <trkpt lat="43.48862" lon="6.93041">
        <ele>56</ele>
        <time>2022-03-26T09:55:40Z</time>
      </trkpt>
      <trkpt lat="43.48857" lon="6.93041">
        <ele>56</ele>
        <time>2022-03-26T09:55:41Z</time>
      </trkpt>
      <trkpt lat="43.48839" lon="6.93036">
        <ele>59</ele>
        <time>2022-03-26T09:55:45Z</time>
      </trkpt>
      <trkpt lat="43.48836" lon="6.93036">
        <ele>59</ele>
        <time>2022-03-26T09:55:46Z</time>
      </trkpt>
      <trkpt lat="43.48833" lon="6.93037">
        <ele>59</ele>
        <time>2022-03-26T09:55:46Z</time>
      </trkpt>
      <trkpt lat="43.4883" lon="6.9304">
        <ele>58</ele>
        <time>2022-03-26T09:55:47Z</time>
      </trkpt>
      <trkpt lat="43.48824" lon="6.93048">
        <ele>55</ele>
        <time>2022-03-26T09:55:49Z</time>
      </trkpt>
      <trkpt lat="43.48821" lon="6.93051">
        <ele>54</ele>
        <time>2022-03-26T09:55:50Z</time>
      </trkpt>
      <trkpt lat="43.488" lon="6.93066">
        <ele>50</ele>
        <time>2022-03-26T09:55:56Z</time>
      </trkpt>
      <trkpt lat="43.48783" lon="6.93079">
        <ele>47</ele>
        <time>2022-03-26T09:56:00Z</time>
      </trkpt>
      <trkpt lat="43.48773" lon="6.93095">
        <ele>45</ele>
        <time>2022-03-26T09:56:04Z</time>
      </trkpt>
      <trkpt lat="43.48767" lon="6.93105">
        <ele>44</ele>
        <time>2022-03-26T09:56:06Z</time>
      </trkpt>
      <trkpt lat="43.48758" lon="6.93117">
        <ele>42</ele>
        <time>2022-03-26T09:56:09Z</time>
      </trkpt>
      <trkpt lat="43.4875" lon="6.93117">
        <ele>43</ele>
        <time>2022-03-26T09:56:11Z</time>
      </trkpt>
      <trkpt lat="43.48746" lon="6.93115">
        <ele>43</ele>
        <time>2022-03-26T09:56:12Z</time>
      </trkpt>
      <trkpt lat="43.48738" lon="6.93094">
        <ele>46</ele>
        <time>2022-03-26T09:56:16Z</time>
      </trkpt>
      <trkpt lat="43.48731" lon="6.93065">
        <ele>51</ele>
        <time>2022-03-26T09:56:21Z</time>
      </trkpt>
      <trkpt lat="43.48731" lon="6.93062">
        <ele>51</ele>
        <time>2022-03-26T09:56:21Z</time>
      </trkpt>
      <trkpt lat="43.4873" lon="6.9306">
        <ele>52</ele>
        <time>2022-03-26T09:56:22Z</time>
      </trkpt>
      <trkpt lat="43.4873" lon="6.93059">
        <ele>52</ele>
        <time>2022-03-26T09:56:22Z</time>
      </trkpt>
      <trkpt lat="43.48729" lon="6.93059">
        <ele>52</ele>
        <time>2022-03-26T09:56:22Z</time>
      </trkpt>
      <trkpt lat="43.48727" lon="6.93059">
        <ele>52</ele>
        <time>2022-03-26T09:56:23Z</time>
      </trkpt>
      <trkpt lat="43.48725" lon="6.93059">
        <ele>52</ele>
        <time>2022-03-26T09:56:23Z</time>
      </trkpt>
      <trkpt lat="43.48715" lon="6.93067">
        <ele>50</ele>
        <time>2022-03-26T09:56:26Z</time>
      </trkpt>
      <trkpt lat="43.48711" lon="6.93071">
        <ele>50</ele>
        <time>2022-03-26T09:56:27Z</time>
      </trkpt>
      <trkpt lat="43.48708" lon="6.93077">
        <ele>49</ele>
        <time>2022-03-26T09:56:28Z</time>
      </trkpt>
      <trkpt lat="43.48706" lon="6.93084">
        <ele>48</ele>
        <time>2022-03-26T09:56:30Z</time>
      </trkpt>
      <trkpt lat="43.48704" lon="6.93093">
        <ele>47</ele>
        <time>2022-03-26T09:56:31Z</time>
      </trkpt>
      <trkpt lat="43.48702" lon="6.93097">
        <ele>46</ele>
        <time>2022-03-26T09:56:32Z</time>
      </trkpt>
      <trkpt lat="43.48701" lon="6.93099">
        <ele>46</ele>
        <time>2022-03-26T09:56:32Z</time>
      </trkpt>
      <trkpt lat="43.48701" lon="6.93101">
        <ele>46</ele>
        <time>2022-03-26T09:56:33Z</time>
      </trkpt>
      <trkpt lat="43.48699" lon="6.93103">
        <ele>46</ele>
        <time>2022-03-26T09:56:33Z</time>
      </trkpt>
      <trkpt lat="43.48698" lon="6.93105">
        <ele>46</ele>
        <time>2022-03-26T09:56:34Z</time>
      </trkpt>
      <trkpt lat="43.48697" lon="6.93106">
        <ele>45</ele>
        <time>2022-03-26T09:56:34Z</time>
      </trkpt>
      <trkpt lat="43.4869" lon="6.93113">
        <ele>45</ele>
        <time>2022-03-26T09:56:36Z</time>
      </trkpt>
      <trkpt lat="43.48689" lon="6.93114">
        <ele>45</ele>
        <time>2022-03-26T09:56:36Z</time>
      </trkpt>
      <trkpt lat="43.48688" lon="6.93115">
        <ele>45</ele>
        <time>2022-03-26T09:56:37Z</time>
      </trkpt>
      <trkpt lat="43.48688" lon="6.93117">
        <ele>44</ele>
        <time>2022-03-26T09:56:37Z</time>
      </trkpt>
      <trkpt lat="43.48688" lon="6.9312">
        <ele>44</ele>
        <time>2022-03-26T09:56:37Z</time>
      </trkpt>
      <trkpt lat="43.48687" lon="6.93141">
        <ele>41</ele>
        <time>2022-03-26T09:56:41Z</time>
      </trkpt>
      <trkpt lat="43.48688" lon="6.9315">
        <ele>40</ele>
        <time>2022-03-26T09:56:43Z</time>
      </trkpt>
      <trkpt lat="43.48689" lon="6.93153">
        <ele>40</ele>
        <time>2022-03-26T09:56:43Z</time>
      </trkpt>
      <trkpt lat="43.48686" lon="6.93165">
        <ele>39</ele>
        <time>2022-03-26T09:56:45Z</time>
      </trkpt>
      <trkpt lat="43.48684" lon="6.93176">
        <ele>37</ele>
        <time>2022-03-26T09:56:47Z</time>
      </trkpt>
      <trkpt lat="43.48683" lon="6.93188">
        <ele>36</ele>
        <time>2022-03-26T09:56:49Z</time>
      </trkpt>
      <trkpt lat="43.48683" lon="6.93196">
        <ele>35</ele>
        <time>2022-03-26T09:56:51Z</time>
      </trkpt>
      <trkpt lat="43.48682" lon="6.932">
        <ele>34</ele>
        <time>2022-03-26T09:56:51Z</time>
      </trkpt>
      <trkpt lat="43.4868" lon="6.93205">
        <ele>34</ele>
        <time>2022-03-26T09:56:52Z</time>
      </trkpt>
      <trkpt lat="43.48678" lon="6.93207">
        <ele>33</ele>
        <time>2022-03-26T09:56:53Z</time>
      </trkpt>
      <trkpt lat="43.48672" lon="6.93209">
        <ele>33</ele>
        <time>2022-03-26T09:56:54Z</time>
      </trkpt>
      <trkpt lat="43.48658" lon="6.93214">
        <ele>32</ele>
        <time>2022-03-26T09:56:58Z</time>
      </trkpt>
      <trkpt lat="43.48658" lon="6.93214">
        <ele>32</ele>
        <time>2022-03-26T09:56:58Z</time>
      </trkpt>
      <trkpt lat="43.48652" lon="6.93214">
        <ele>33</ele>
        <time>2022-03-26T09:56:59Z</time>
      </trkpt>
      <trkpt lat="43.48649" lon="6.93216">
        <ele>32</ele>
        <time>2022-03-26T09:57:00Z</time>
      </trkpt>
      <trkpt lat="43.48643" lon="6.93218">
        <ele>32</ele>
        <time>2022-03-26T09:57:01Z</time>
      </trkpt>
      <trkpt lat="43.48638" lon="6.93222">
        <ele>32</ele>
        <time>2022-03-26T09:57:03Z</time>
      </trkpt>
      <trkpt lat="43.48632" lon="6.93226">
        <ele>31</ele>
        <time>2022-03-26T09:57:04Z</time>
      </trkpt>
      <trkpt lat="43.48625" lon="6.93228">
        <ele>31</ele>
        <time>2022-03-26T09:57:06Z</time>
      </trkpt>
      <trkpt lat="43.48614" lon="6.9323">
        <ele>31</ele>
        <time>2022-03-26T09:57:08Z</time>
      </trkpt>
      <trkpt lat="43.48606" lon="6.93231">
        <ele>31</ele>
        <time>2022-03-26T09:57:10Z</time>
      </trkpt>
      <trkpt lat="43.486" lon="6.93234">
        <ele>30</ele>
        <time>2022-03-26T09:57:12Z</time>
      </trkpt>
      <trkpt lat="43.48595" lon="6.93236">
        <ele>30</ele>
        <time>2022-03-26T09:57:13Z</time>
      </trkpt>
      <trkpt lat="43.48587" lon="6.93241">
        <ele>29</ele>
        <time>2022-03-26T09:57:15Z</time>
      </trkpt>
      <trkpt lat="43.48581" lon="6.93245">
        <ele>29</ele>
        <time>2022-03-26T09:57:17Z</time>
      </trkpt>
      <trkpt lat="43.48576" lon="6.93248">
        <ele>27</ele>
        <time>2022-03-26T09:57:18Z</time>
      </trkpt>
      <trkpt lat="43.48572" lon="6.93251">
        <ele>26</ele>
        <time>2022-03-26T09:57:19Z</time>
      </trkpt>
      <trkpt lat="43.48568" lon="6.93252">
        <ele>26</ele>
        <time>2022-03-26T09:57:20Z</time>
      </trkpt>
      <trkpt lat="43.48565" lon="6.93253">
        <ele>25</ele>
        <time>2022-03-26T09:57:21Z</time>
      </trkpt>
      <trkpt lat="43.48562" lon="6.93253">
        <ele>25</ele>
        <time>2022-03-26T09:57:21Z</time>
      </trkpt>
      <trkpt lat="43.48558" lon="6.93252">
        <ele>24</ele>
        <time>2022-03-26T09:57:22Z</time>
      </trkpt>
      <trkpt lat="43.48554" lon="6.9325">
        <ele>24</ele>
        <time>2022-03-26T09:57:23Z</time>
      </trkpt>
      <trkpt lat="43.48552" lon="6.93248">
        <ele>24</ele>
        <time>2022-03-26T09:57:24Z</time>
      </trkpt>
      <trkpt lat="43.48548" lon="6.93244">
        <ele>24</ele>
        <time>2022-03-26T09:57:25Z</time>
      </trkpt>
      <trkpt lat="43.48545" lon="6.9324">
        <ele>24</ele>
        <time>2022-03-26T09:57:26Z</time>
      </trkpt>
      <trkpt lat="43.48541" lon="6.9323">
        <ele>25</ele>
        <time>2022-03-26T09:57:28Z</time>
      </trkpt>
      <trkpt lat="43.48538" lon="6.93219">
        <ele>25</ele>
        <time>2022-03-26T09:57:30Z</time>
      </trkpt>
      <trkpt lat="43.48534" lon="6.93207">
        <ele>26</ele>
        <time>2022-03-26T09:57:32Z</time>
      </trkpt>
      <trkpt lat="43.4853" lon="6.9319">
        <ele>27</ele>
        <time>2022-03-26T09:57:35Z</time>
      </trkpt>
      <trkpt lat="43.48526" lon="6.93175">
        <ele>27</ele>
        <time>2022-03-26T09:57:38Z</time>
      </trkpt>
      <trkpt lat="43.48524" lon="6.93167">
        <ele>28</ele>
        <time>2022-03-26T09:57:39Z</time>
      </trkpt>
      <trkpt lat="43.48521" lon="6.93155">
        <ele>27</ele>
        <time>2022-03-26T09:57:42Z</time>
      </trkpt>
      <trkpt lat="43.48518" lon="6.93139">
        <ele>27</ele>
        <time>2022-03-26T09:57:44Z</time>
      </trkpt>
      <trkpt lat="43.48516" lon="6.9313">
        <ele>27</ele>
        <time>2022-03-26T09:57:46Z</time>
      </trkpt>
      <trkpt lat="43.48513" lon="6.93121">
        <ele>26</ele>
        <time>2022-03-26T09:57:48Z</time>
      </trkpt>
      <trkpt lat="43.48509" lon="6.93111">
        <ele>26</ele>
        <time>2022-03-26T09:57:50Z</time>
      </trkpt>
      <trkpt lat="43.48505" lon="6.93106">
        <ele>25</ele>
        <time>2022-03-26T09:57:51Z</time>
      </trkpt>
      <trkpt lat="43.48503" lon="6.93102">
        <ele>25</ele>
        <time>2022-03-26T09:57:52Z</time>
      </trkpt>
      <trkpt lat="43.485" lon="6.931">
        <ele>24</ele>
        <time>2022-03-26T09:57:52Z</time>
      </trkpt>
      <trkpt lat="43.48498" lon="6.931">
        <ele>24</ele>
        <time>2022-03-26T09:57:53Z</time>
      </trkpt>
      <trkpt lat="43.48496" lon="6.93099">
        <ele>24</ele>
        <time>2022-03-26T09:57:53Z</time>
      </trkpt>
      <trkpt lat="43.48493" lon="6.931">
        <ele>23</ele>
        <time>2022-03-26T09:57:54Z</time>
      </trkpt>
      <trkpt lat="43.48489" lon="6.93101">
        <ele>22</ele>
        <time>2022-03-26T09:57:55Z</time>
      </trkpt>
      <trkpt lat="43.48487" lon="6.93102">
        <ele>22</ele>
        <time>2022-03-26T09:57:56Z</time>
      </trkpt>
      <trkpt lat="43.48481" lon="6.93106">
        <ele>21</ele>
        <time>2022-03-26T09:57:57Z</time>
      </trkpt>
      <trkpt lat="43.48474" lon="6.93112">
        <ele>19</ele>
        <time>2022-03-26T09:57:59Z</time>
      </trkpt>
    </trkseg>
  </trk>
</gpx>